<- Previous Day | Today | Next Day ->

All Data for 18 January 2020

 

Time A - D Temp A - D Dew Point A - D Humidity A - D Pressure A - D Wind A - D Wind Dir Gust A - D Rain Rate A - D Rain Total
00:00 5.3 2.8 84 1023.2 1.6 W 4.5 0.0 0.0
00:02 5.3 2.8 84 1023.3 1.6 W 4.5 0.0 0.0
00:03 5.3 2.8 84 1023.2 1.6 W 4.5 0.0 0.0
00:04 5.3 2.8 84 1023.4 1.6 W 4.5 0.0 0.0
00:05 5.3 2.8 84 1023.5 1.6 W 4.5 0.0 0.0
00:06 5.2 2.7 84 1023.3 1.6 W 3.1 0.0 0.0
00:07 5.2 2.7 84 1023.2 1.6 W 2.2 0.0 0.0
00:08 5.2 2.7 84 1023.3 0.7 W 2.2 0.0 0.0
00:09 5.2 2.7 84 1023.5 0.0 N 2.2 0.0 0.0
00:10 5.2 2.7 84 1023.4 1.6 N 1.6 0.0 0.0
00:11 5.2 2.7 84 1023.3 2.2 W 3.1 0.0 0.0
00:12 5.2 2.7 84 1023.4 2.2 W 3.1 0.0 0.0
00:13 5.2 2.7 84 1023.4 1.6 N 3.1 0.0 0.0
00:14 5.1 2.6 84 1023.4 2.2 NW 3.1 0.0 0.0
00:16 5.1 2.6 84 1023.3 1.6 WNW 3.1 0.0 0.0
00:17 5.1 2.6 84 1023.4 1.6 NW 3.1 0.0 0.0
00:18 5.1 2.6 84 1023.5 1.6 NW 3.1 0.0 0.0
00:19 5.1 2.6 84 1023.4 1.6 NW 3.1 0.0 0.0
00:20 5.1 2.6 84 1023.6 0.7 NW 3.1 0.0 0.0
00:21 5.0 2.5 84 1023.7 1.6 NW 3.1 0.0 0.0
00:22 5.1 2.6 84 1023.7 0.7 NW 2.2 0.0 0.0
00:23 5.0 2.5 84 1023.6 0.7 NW 2.2 0.0 0.0
00:24 5.0 2.5 84 1023.6 0.0 NW 2.2 0.0 0.0
00:25 5.0 2.5 84 1023.6 0.7 W 1.6 0.0 0.0
00:26 5.0 2.5 84 1023.7 0.7 NW 1.6 0.0 0.0
00:27 5.0 2.5 84 1023.6 0.7 NW 1.6 0.0 0.0
00:28 4.9 2.4 84 1023.6 0.0 NW 1.6 0.0 0.0
00:29 4.9 2.4 84 1023.6 0.7 NW 1.6 0.0 0.0
00:31 4.9 2.4 84 1023.5 1.6 NW 1.6 0.0 0.0
00:32 4.9 2.4 84 1023.5 1.6 NW 1.6 0.0 0.0
00:33 4.8 2.3 84 1023.7 0.0 NW 1.6 0.0 0.0
00:34 4.8 2.3 84 1023.7 0.0 NW 1.6 0.0 0.0
00:35 4.8 2.3 84 1023.7 1.6 W 1.6 0.0 0.0
00:36 4.8 2.3 84 1023.7 0.7 NW 1.6 0.0 0.0
00:37 4.7 2.2 84 1023.8 1.6 NW 1.6 0.0 0.0
00:38 4.7 2.2 84 1023.8 1.6 NW 1.6 0.0 0.0
00:39 4.7 2.2 84 1023.7 3.8 N 3.8 0.0 0.0
00:40 4.7 2.2 84 1023.5 3.1 NW 3.8 0.0 0.0
00:41 4.6 2.1 84 1023.7 2.2 NW 3.8 0.0 0.0
00:42 4.6 2.0 83 1023.7 3.1 NW 3.8 0.0 0.0
00:43 4.6 2.1 84 1023.6 3.1 NW 3.8 0.0 0.0
00:45 4.5 2.0 84 1023.7 1.6 NW 3.8 0.0 0.0
00:46 4.5 2.0 84 1023.7 1.6 NW 3.8 0.0 0.0
00:47 4.5 2.0 84 1023.7 3.1 NW 3.8 0.0 0.0
00:48 4.5 2.0 84 1023.7 2.2 NW 3.8 0.0 0.0
00:49 4.4 1.9 84 1023.7 2.2 NW 3.8 0.0 0.0
00:50 4.4 1.9 84 1023.7 1.6 NW 3.1 0.0 0.0
00:51 4.4 1.9 84 1023.7 1.6 N 3.1 0.0 0.0
00:52 4.4 1.9 84 1023.6 1.6 NW 3.1 0.0 0.0
00:53 4.3 1.8 84 1023.9 1.6 N 3.1 0.0 0.0
00:54 4.3 1.8 84 1023.8 1.6 N 3.1 0.0 0.0
00:55 4.3 1.8 84 1023.6 2.2 N 3.1 0.0 0.0
00:56 4.3 1.8 84 1023.7 1.6 N 3.1 0.0 0.0
00:57 4.2 1.7 84 1023.8 1.6 N 2.2 0.0 0.0
00:59 4.2 1.7 84 1023.7 1.6 N 2.2 0.0 0.0
01:00 4.2 1.7 84 1023.7 1.6 N 2.2 0.0 0.0
01:01 4.2 1.7 84 1023.7 0.0 N 2.2 0.0 0.0
01:02 4.2 1.7 84 1023.7 0.0 N 2.2 0.0 0.0
01:03 4.2 1.7 84 1023.8 0.0 N 2.2 0.0 0.0
01:04 4.2 1.7 84 1023.7 0.0 N 2.2 0.0 0.0
01:05 4.2 1.7 84 1023.7 0.0 N 2.2 0.0 0.0
01:06 4.2 1.7 84 1023.7 0.0 N 2.2 0.0 0.0
01:07 4.0 1.5 84 1023.7 2.2 N 2.2 0.0 0.0
01:08 4.0 1.5 84 1023.8 1.6 N 2.2 0.0 0.0
01:09 4.0 1.5 84 1023.8 0.7 N 2.2 0.0 0.0
01:10 4.0 1.5 84 1023.8 0.0 N 2.2 0.0 0.0
01:11 3.9 1.4 84 1023.8 0.0 N 2.2 0.0 0.0
01:12 3.9 1.4 84 1023.9 0.0 N 2.2 0.0 0.0
01:13 3.9 1.4 84 1023.8 0.0 N 2.2 0.0 0.0
01:15 3.8 1.3 84 1023.9 1.6 N 2.2 0.0 0.0
01:16 3.8 1.3 84 1023.9 1.6 N 2.2 0.0 0.0
01:17 3.8 1.3 84 1024.0 1.6 N 2.2 0.0 0.0
01:18 3.8 1.3 84 1024.0 0.7 N 2.2 0.0 0.0
01:19 3.7 1.3 84 1024.0 0.7 N 1.6 0.0 0.0
01:20 3.7 1.3 84 1024.1 0.7 N 1.6 0.0 0.0
01:21 3.7 1.3 84 1024.0 0.0 N 1.6 0.0 0.0
01:22 3.7 1.3 84 1024.2 0.0 N 1.6 0.0 0.0
01:23 3.7 1.3 84 1024.0 0.0 N 1.6 0.0 0.0
01:24 3.6 1.2 84 1024.0 0.0 N 1.6 0.0 0.0
01:25 3.6 1.2 84 1024.1 0.0 N 1.6 0.0 0.0
01:26 3.6 1.2 84 1024.1 0.0 N 1.6 0.0 0.0
01:27 3.6 1.2 84 1024.1 0.7 N 0.7 0.0 0.0
01:29 3.6 1.2 84 1024.0 0.7 N 0.7 0.0 0.0
01:30 3.5 1.1 84 1024.1 1.6 N 1.6 0.0 0.0
01:31 3.5 1.1 84 1024.0 1.6 N 1.6 0.0 0.0
01:32 3.5 1.1 84 1024.1 1.6 N 1.6 0.0 0.0
01:33 3.5 1.1 84 1024.0 1.6 NW 1.6 0.0 0.0
01:34 3.5 1.1 84 1023.9 1.6 NW 1.6 0.0 0.0
01:35 3.5 1.1 84 1024.1 1.6 NW 1.6 0.0 0.0
01:36 3.5 1.1 84 1024.0 1.6 NW 1.6 0.0 0.0
01:37 3.5 1.1 84 1023.9 2.2 N 2.2 0.0 0.0
01:38 3.5 1.1 84 1024.0 2.2 NW 2.2 0.0 0.0
01:39 3.5 1.1 84 1024.0 1.6 N 2.2 0.0 0.0
01:40 3.5 1.1 84 1023.9 1.6 N 2.2 0.0 0.0
01:41 3.5 1.1 84 1024.1 1.6 N 2.2 0.0 0.0
01:43 3.5 1.1 84 1024.0 0.7 N 2.2 0.0 0.0
01:44 3.5 1.1 84 1024.0 0.7 N 2.2 0.0 0.0
01:45 3.5 1.1 84 1024.1 0.7 N 2.2 0.0 0.0
01:46 3.5 1.1 84 1024.1 0.0 N 2.2 0.0 0.0
01:47 3.5 1.1 84 1024.2 0.0 N 2.2 0.0 0.0
01:48 3.5 1.1 84 1024.2 0.0 N 2.2 0.0 0.0
01:49 3.5 1.1 84 1024.0 0.0 N 2.2 0.0 0.0
01:50 3.5 1.1 84 1024.1 0.0 N 1.6 0.0 0.0
01:51 3.5 1.1 84 1024.2 0.0 N 1.6 0.0 0.0
01:52 3.4 1.0 84 1024.1 0.0 N 1.6 0.0 0.0
01:53 3.4 1.0 84 1024.1 0.0 N 0.7 0.0 0.0
01:54 3.4 1.0 84 1024.1 0.0 N 0.7 0.0 0.0
01:55 3.4 1.0 84 1024.1 0.7 NE 0.7 0.0 0.0
01:57 3.4 1.0 84 1024.1 0.7 N 0.7 0.0 0.0
01:58 3.3 0.9 84 1024.0 0.0 N 0.7 0.0 0.0
01:59 3.3 0.9 84 1024.2 0.0 N 0.7 0.0 0.0
02:00 3.3 0.9 84 1024.1 0.7 N 0.7 0.0 0.0
02:01 3.3 0.9 84 1024.0 0.7 N 0.7 0.0 0.0
02:02 3.3 0.9 84 1024.0 0.7 N 0.7 0.0 0.0
02:03 3.3 0.9 84 1024.2 0.7 N 0.7 0.0 0.0
02:04 3.3 0.9 84 1024.1 0.7 N 0.7 0.0 0.0
02:05 3.3 0.9 84 1024.2 0.7 N 0.7 0.0 0.0
02:06 3.3 0.9 84 1024.2 1.6 N 1.6 0.0 0.0
02:07 3.3 0.9 84 1024.2 1.6 N 1.6 0.0 0.0
02:08 3.3 0.9 84 1024.2 0.7 N 1.6 0.0 0.0
02:09 3.3 0.9 84 1024.1 1.6 N 1.6 0.0 0.0
02:10 3.3 0.9 84 1024.2 1.6 N 1.6 0.0 0.0
02:12 3.3 1.0 85 1024.3 0.7 N 1.6 0.0 0.0
02:13 3.3 1.0 85 1024.2 0.7 NW 1.6 0.0 0.0
02:14 3.3 1.0 85 1024.3 0.7 NW 1.6 0.0 0.0
02:15 3.3 1.0 85 1024.2 0.7 NE 1.6 0.0 0.0
02:16 3.3 1.0 85 1024.2 0.0 N 1.6 0.0 0.0
02:17 3.2 0.9 85 1024.2 0.7 NE 1.6 0.0 0.0
02:18 3.2 0.9 85 1024.3 1.6 N 1.6 0.0 0.0
02:19 3.2 0.9 85 1024.2 1.6 N 1.6 0.0 0.0
02:20 3.2 0.9 85 1024.2 0.7 N 1.6 0.0 0.0
02:21 3.2 0.9 85 1024.3 0.7 N 1.6 0.0 0.0
02:22 3.2 0.9 85 1024.2 0.7 N 1.6 0.0 0.0
02:23 3.2 0.9 85 1024.2 1.6 N 1.6 0.0 0.0
02:24 3.2 0.9 85 1024.1 1.6 N 1.6 0.0 0.0
02:26 3.2 0.9 85 1024.2 1.6 NE 1.6 0.0 0.0
02:27 3.2 0.9 85 1024.2 1.6 N 1.6 0.0 0.0
02:28 3.2 0.9 85 1024.2 2.2 NE 2.2 0.0 0.0
02:29 3.2 0.9 85 1024.1 1.6 NE 2.2 0.0 0.0
02:30 3.2 0.9 85 1024.2 1.6 NE 2.2 0.0 0.0
02:31 3.2 0.9 85 1024.2 1.6 N 2.2 0.0 0.0
02:32 3.2 0.9 85 1024.2 1.6 N 2.2 0.0 0.0
02:33 3.2 0.9 85 1024.2 0.0 N 2.2 0.0 0.0
02:34 3.2 0.9 85 1024.2 0.0 N 2.2 0.0 0.0
02:35 3.2 0.9 85 1024.2 1.6 N 2.2 0.0 0.0
02:36 3.2 0.9 85 1024.2 0.7 N 2.2 0.0 0.0
02:37 3.2 0.9 85 1024.1 2.2 N 2.2 0.0 0.0
02:39 3.2 0.9 85 1024.1 1.6 N 2.2 0.0 0.0
02:40 3.2 0.9 85 1024.2 1.6 N 2.2 0.0 0.0
02:41 3.2 0.9 85 1024.2 1.6 NE 2.2 0.0 0.0
02:42 3.2 0.9 85 1024.1 1.6 NE 2.2 0.0 0.0
02:43 3.2 0.9 85 1024.1 1.6 NE 2.2 0.0 0.0
02:44 3.2 0.9 85 1024.0 1.6 NE 2.2 0.0 0.0
02:45 3.2 0.9 85 1024.1 0.7 NE 2.2 0.0 0.0
02:46 3.2 0.9 85 1024.1 0.0 NE 2.2 0.0 0.0
02:47 3.2 0.9 85 1024.1 0.0 NE 2.2 0.0 0.0
02:48 3.2 0.9 85 1024.2 0.0 NE 1.6 0.0 0.0
02:49 3.2 0.9 85 1024.2 0.0 NE 1.6 0.0 0.0
02:50 3.2 0.9 85 1024.2 0.0 NE 1.6 0.0 0.0
02:51 3.2 0.9 85 1024.2 1.6 NE 1.6 0.0 0.0
02:52 3.2 0.9 85 1024.2 1.6 NE 1.6 0.0 0.0
02:54 3.2 0.9 85 1024.1 1.6 NE 1.6 0.0 0.0
02:55 3.2 0.9 85 1024.2 0.7 NE 1.6 0.0 0.0
02:56 3.2 0.9 85 1024.3 1.6 NE 1.6 0.0 0.0
02:57 3.1 0.8 85 1024.2 0.7 NE 1.6 0.0 0.0
02:58 3.1 0.8 85 1024.2 0.0 NE 1.6 0.0 0.0
02:59 3.1 0.8 85 1024.2 0.0 NE 1.6 0.0 0.0
03:00 3.1 0.8 85 1024.3 0.0 NE 1.6 0.0 0.0
03:01 3.1 0.8 85 1024.2 0.0 NE 1.6 0.0 0.0
03:02 3.1 0.8 85 1024.2 0.0 NE 1.6 0.0 0.0
03:03 3.1 0.8 85 1024.2 0.0 NE 1.6 0.0 0.0
03:04 3.1 0.8 85 1024.0 0.0 NE 1.6 0.0 0.0
03:05 3.1 0.8 85 1024.1 0.0 NE 1.6 0.0 0.0
03:06 3.1 0.8 85 1024.2 0.0 NE 0.7 0.0 0.0
03:08 2.8 0.5 85 1024.2 1.6 NE 1.6 0.0 0.0
03:09 2.8 0.5 85 1024.0 1.6 N 1.6 0.0 0.0
03:10 2.8 0.5 85 1024.0 1.6 N 1.6 0.0 0.0
03:11 2.8 0.5 85 1024.0 0.7 N 1.6 0.0 0.0
03:12 2.8 0.5 85 1023.9 0.7 N 1.6 0.0 0.0
03:13 2.8 0.5 85 1024.4 0.7 N 1.6 0.0 0.0
03:14 2.9 0.6 85 1024.2 0.7 N 1.6 0.0 0.0
03:15 2.8 0.5 85 1024.1 0.7 N 1.6 0.0 0.0
03:16 2.9 0.6 85 1024.2 0.0 N 1.6 0.0 0.0
03:17 2.9 0.6 85 1024.2 0.0 N 1.6 0.0 0.0
03:18 2.8 0.5 85 1024.1 0.0 N 1.6 0.0 0.0
03:19 2.8 0.5 85 1024.1 0.0 N 1.6 0.0 0.0
03:20 2.8 0.5 85 1024.2 0.0 N 1.6 0.0 0.0
03:22 2.7 0.4 85 1024.1 0.0 N 1.6 0.0 0.0
03:23 2.6 0.3 85 1024.2 0.0 N 0.7 0.0 0.0
03:24 2.6 0.3 85 1024.2 0.0 N 0.7 0.0 0.0
03:25 2.6 0.3 85 1024.2 0.0 N 0.7 0.0 0.0
03:26 2.5 0.2 85 1024.2 0.0 N 0.0 0.0 0.0
03:27 2.5 0.2 85 1024.2 0.0 N 0.0 0.0 0.0
03:28 2.5 0.2 85 1024.4 0.0 N 0.0 0.0 0.0
03:29 2.4 0.1 85 1024.3 0.0 N 0.0 0.0 0.0
03:30 2.4 0.1 85 1024.3 0.0 N 0.0 0.0 0.0
03:31 2.4 0.1 85 1024.1 0.0 N 0.0 0.0 0.0
03:32 2.3 0.0 85 1024.3 0.0 N 0.0 0.0 0.0
03:33 2.3 0.0 85 1024.2 1.6 N 1.6 0.0 0.0
03:34 2.3 0.0 85 1024.3 1.6 N 1.6 0.0 0.0
03:35 2.3 0.0 85 1024.1 0.7 N 1.6 0.0 0.0
03:37 2.3 0.0 85 1024.1 0.7 N 1.6 0.0 0.0
03:38 2.3 0.0 85 1024.3 0.7 N 1.6 0.0 0.0
03:39 2.3 0.0 85 1024.3 0.7 N 1.6 0.0 0.0
03:40 2.3 0.0 85 1024.3 0.0 N 1.6 0.0 0.0
03:41 2.2 -0.1 85 1024.5 0.0 N 1.6 0.0 0.0
03:42 2.2 -0.1 85 1024.5 0.0 N 1.6 0.0 0.0
03:43 2.2 -0.1 85 1024.5 0.0 N 1.6 0.0 0.0
03:44 2.2 -0.1 85 1024.5 0.7 N 1.6 0.0 0.0
03:45 2.2 -0.1 85 1024.4 1.6 N 1.6 0.0 0.0
03:46 2.2 -0.1 85 1024.4 1.6 N 1.6 0.0 0.0
03:47 2.2 -0.1 85 1024.5 0.7 N 1.6 0.0 0.0
03:48 2.2 -0.1 85 1024.5 0.7 N 1.6 0.0 0.0
03:49 2.2 -0.1 85 1024.4 0.0 N 1.6 0.0 0.0
03:51 2.2 -0.1 85 1024.5 0.0 N 1.6 0.0 0.0
03:52 2.2 -0.1 85 1024.5 0.0 N 1.6 0.0 0.0
03:53 2.2 -0.1 85 1024.4 0.0 N 1.6 0.0 0.0
03:54 2.2 -0.1 85 1024.3 0.0 N 1.6 0.0 0.0
03:55 2.2 -0.1 85 1024.5 0.0 N 1.6 0.0 0.0
03:56 2.2 -0.1 85 1024.4 0.0 N 1.6 0.0 0.0
03:57 2.1 -0.2 85 1024.4 0.0 N 0.7 0.0 0.0
03:58 2.1 -0.2 85 1024.4 0.0 N 0.7 0.0 0.0
03:59 2.1 -0.2 85 1024.5 0.0 N 0.0 0.0 0.0
04:00 2.1 -0.2 85 1024.5 0.0 N 0.0 0.0 0.0
04:01 2.1 -0.2 85 1024.5 0.0 N 0.0 0.0 0.0
04:02 2.1 -0.2 85 1024.5 0.0 N 0.0 0.0 0.0
04:03 2.1 -0.2 85 1024.5 0.0 N 0.0 0.0 0.0
04:05 2.1 -0.2 85 1024.5 0.0 N 0.0 0.0 0.0
04:06 2.1 -0.2 85 1024.5 0.0 N 0.0 0.0 0.0
04:07 2.1 -0.2 85 1024.5 0.0 N 0.0 0.0 0.0
04:08 2.0 -0.1 86 1024.4 0.0 N 0.0 0.0 0.0
04:09 1.9 -0.3 85 1024.5 0.0 N 0.0 0.0 0.0
04:10 1.9 -0.3 85 1024.7 0.0 N 0.0 0.0 0.0
04:11 1.9 -0.3 85 1024.7 0.0 N 0.0 0.0 0.0
04:12 1.9 -0.3 85 1024.7 0.0 N 0.0 0.0 0.0
04:13 1.8 -0.3 86 1024.8 0.0 N 0.0 0.0 0.0
04:14 1.8 -0.4 85 1024.7 0.0 N 0.0 0.0 0.0
04:15 1.8 -0.3 86 1024.8 0.0 N 0.0 0.0 0.0
04:16 1.8 -0.3 86 1024.8 0.0 N 0.0 0.0 0.0
04:17 1.8 -0.3 86 1024.8 0.0 N 0.0 0.0 0.0
04:19 1.8 -0.3 86 1024.8 0.0 N 0.0 0.0 0.0
04:20 1.8 -0.3 86 1024.8 0.0 N 0.0 0.0 0.0
04:21 1.8 -0.3 86 1024.8 0.0 N 0.0 0.0 0.0
04:22 1.8 -0.3 86 1024.8 0.0 N 0.0 0.0 0.0
04:23 1.8 -0.3 86 1024.8 0.0 N 0.0 0.0 0.0
04:24 1.8 -0.3 86 1024.8 0.0 N 0.0 0.0 0.0
04:25 1.7 -0.4 86 1024.7 0.0 N 0.0 0.0 0.0
04:26 1.7 -0.4 86 1024.7 0.0 N 0.0 0.0 0.0
04:27 1.6 -0.5 86 1024.8 0.0 N 0.0 0.0 0.0
04:28 1.6 -0.5 86 1024.8 0.0 N 0.0 0.0 0.0
04:29 1.6 -0.5 86 1024.7 0.0 N 0.0 0.0 0.0
04:30 1.6 -0.5 86 1024.8 0.0 N 0.0 0.0 0.0
04:31 1.6 -0.5 86 1024.7 1.6 N 1.6 0.0 0.0
04:33 1.6 -0.5 86 1024.9 1.6 N 1.6 0.0 0.0
04:34 1.6 -0.5 86 1024.7 1.6 N 1.6 0.0 0.0
04:35 1.6 -0.5 86 1024.8 0.7 N 1.6 0.0 0.0
04:36 1.7 -0.4 86 1024.8 0.7 N 1.6 0.0 0.0
04:37 1.7 -0.4 86 1024.8 0.0 N 1.6 0.0 0.0
04:38 1.7 -0.4 86 1024.8 0.0 N 1.6 0.0 0.0
04:39 1.7 -0.4 86 1024.7 0.0 N 1.6 0.0 0.0
04:40 1.7 -0.4 86 1024.8 0.0 N 1.6 0.0 0.0
04:41 1.7 -0.4 86 1024.7 0.0 N 1.6 0.0 0.0
04:42 1.6 -0.5 86 1024.7 0.0 N 1.6 0.0 0.0
04:43 1.6 -0.5 86 1024.8 0.0 N 1.6 0.0 0.0
04:44 1.6 -0.5 86 1024.7 0.0 N 0.7 0.0 0.0
04:45 1.5 -0.6 86 1024.8 0.0 N 0.7 0.0 0.0
04:47 1.5 -0.6 86 1024.8 0.0 N 0.0 0.0 0.0
04:48 1.5 -0.6 86 1024.8 0.0 N 0.0 0.0 0.0
04:49 1.5 -0.6 86 1024.8 1.6 NE 1.6 0.0 0.0
04:50 1.5 -0.6 86 1024.8 1.6 NE 1.6 0.0 0.0
04:51 1.6 -0.5 86 1024.7 1.6 NE 1.6 0.0 0.0
04:52 1.6 -0.5 86 1024.8 1.6 NE 1.6 0.0 0.0
04:53 1.6 -0.5 86 1024.7 1.6 NE 1.6 0.0 0.0
04:54 1.6 -0.5 86 1024.8 1.6 NE 1.6 0.0 0.0
04:55 1.6 -0.5 86 1024.7 2.2 NE 2.2 0.0 0.0
04:56 1.7 -0.4 86 1024.7 3.1 NE 3.1 0.0 0.0
04:57 1.6 -0.5 86 1024.8 3.1 NE 3.1 0.0 0.0
04:58 1.6 -0.5 86 1024.8 2.2 NE 3.1 0.0 0.0
04:59 1.6 -0.5 86 1024.7 1.6 NE 3.1 0.0 0.0
05:00 1.6 -0.5 86 1024.7 1.6 NE 3.1 0.0 0.0
05:02 1.6 -0.5 86 1024.8 1.6 NE 3.1 0.0 0.0
05:03 1.6 -0.5 86 1024.7 1.6 NE 3.1 0.0 0.0
05:04 1.6 -0.5 86 1024.9 1.6 NE 3.1 0.0 0.0
05:05 1.6 -0.5 86 1024.8 1.6 NE 3.1 0.0 0.0
05:06 1.6 -0.5 86 1024.8 1.6 NE 3.1 0.0 0.0
05:07 1.6 -0.5 86 1024.8 1.6 NE 3.1 0.0 0.0
05:08 1.6 -0.5 86 1024.7 2.2 NE 2.2 0.0 0.0
05:09 1.6 -0.5 86 1024.9 2.2 NE 2.2 0.0 0.0
05:10 1.6 -0.3 87 1024.8 2.2 NE 2.2 0.0 0.0
05:11 1.6 -0.3 87 1024.8 2.2 NE 2.2 0.0 0.0
05:12 1.6 -0.3 87 1024.7 2.2 NE 2.2 0.0 0.0
05:13 1.7 -0.2 87 1024.7 2.2 NE 2.2 0.0 0.0
05:14 1.7 -0.2 87 1024.7 2.2 NE 2.2 0.0 0.0
05:15 1.8 -0.1 87 1024.7 2.2 NE 2.2 0.0 0.0
05:16 1.8 -0.1 87 1024.7 2.2 NE 2.2 0.0 0.0
05:18 1.9 0.0 87 1024.7 2.2 NE 2.2 0.0 0.0
05:19 1.9 0.0 87 1024.8 2.2 NE 2.2 0.0 0.0
05:20 1.9 0.0 87 1024.8 2.2 NE 2.2 0.0 0.0
05:21 1.9 0.0 87 1024.9 2.2 NE 2.2 0.0 0.0
05:22 1.9 0.0 87 1024.7 3.1 NE 3.1 0.0 0.0
05:23 2.0 0.1 87 1024.8 2.2 NE 3.1 0.0 0.0
05:24 2.0 0.1 87 1024.7 2.2 NE 3.1 0.0 0.0
05:25 2.0 0.1 87 1024.8 2.2 NE 3.1 0.0 0.0
05:26 2.0 0.1 87 1024.7 1.6 NE 3.1 0.0 0.0
05:27 2.0 0.1 87 1024.9 1.6 NE 3.1 0.0 0.0
05:28 2.0 0.1 87 1024.8 1.6 NE 3.1 0.0 0.0
05:29 2.0 0.1 87 1025.0 1.6 NE 3.1 0.0 0.0
05:30 2.0 0.1 87 1024.8 1.6 NE 3.1 0.0 0.0
05:32 1.9 0.0 87 1025.1 1.6 NE 2.2 0.0 0.0
05:33 1.9 0.0 87 1025.1 1.6 NE 2.2 0.0 0.0
05:34 1.8 -0.1 87 1024.9 1.6 NE 2.2 0.0 0.0
05:35 1.8 -0.1 87 1025.2 1.6 NE 2.2 0.0 0.0
05:36 1.8 -0.1 87 1025.2 1.6 NE 1.6 0.0 0.0
05:37 1.8 -0.1 87 1025.0 2.2 NE 2.2 0.0 0.0
05:38 1.8 -0.1 87 1024.9 2.2 NE 2.2 0.0 0.0
05:39 1.8 -0.1 87 1025.1 2.2 NE 2.2 0.0 0.0
05:40 1.8 -0.1 87 1025.0 2.2 NE 2.2 0.0 0.0
05:41 1.8 -0.1 87 1025.1 3.1 NE 3.1 0.0 0.0
05:42 1.8 -0.1 87 1025.2 3.1 NE 3.1 0.0 0.0
05:43 1.9 0.0 87 1025.0 3.1 NE 3.1 0.0 0.0
05:44 1.9 0.0 87 1025.1 3.1 NE 3.1 0.0 0.0
05:46 2.0 0.1 87 1025.1 3.1 N 3.1 0.0 0.0
05:47 2.0 0.1 87 1025.1 2.2 N 3.1 0.0 0.0
05:48 2.0 0.1 87 1025.0 2.2 NE 3.1 0.0 0.0
05:49 2.1 0.3 88 1025.1 2.2 N 3.1 0.0 0.0
05:50 2.1 0.3 88 1025.1 1.6 N 3.1 0.0 0.0
05:51 2.2 0.4 88 1025.2 1.6 NNE 3.1 0.0 0.0
05:52 2.2 0.4 88 1025.1 1.6 NE 3.1 0.0 0.0
05:53 2.2 0.4 88 1025.1 1.6 NE 3.1 0.0 0.0
05:54 2.2 0.4 88 1025.3 2.2 NE 3.1 0.0 0.0
05:55 2.3 0.5 88 1025.1 2.2 N 3.1 0.0 0.0
05:56 2.3 0.5 88 1025.0 2.2 N 2.2 0.0 0.0
05:57 2.3 0.5 88 1025.0 2.2 N 2.2 0.0 0.0
05:59 2.3 0.5 88 1025.1 1.6 N 2.2 0.0 0.0
06:00 2.3 0.5 88 1025.1 1.6 N 2.2 0.0 0.0
06:01 2.3 0.5 88 1025.1 1.6 N 2.2 0.0 0.0
06:02 2.3 0.5 88 1025.0 1.6 N 2.2 0.0 0.0
06:03 2.3 0.5 88 1025.2 1.6 N 2.2 0.0 0.0
06:04 2.3 0.5 88 1025.2 1.6 N 2.2 0.0 0.0
06:05 2.3 0.5 88 1025.1 1.6 N 2.2 0.0 0.0
06:06 2.3 0.5 88 1025.1 1.6 N 2.2 0.0 0.0
06:07 2.3 0.5 88 1025.0 1.6 N 2.2 0.0 0.0
06:08 2.4 0.6 88 1025.2 2.2 NE 2.2 0.0 0.0
06:09 2.4 0.6 88 1025.1 2.2 NE 2.2 0.0 0.0
06:10 2.4 0.6 88 1025.0 2.2 N 2.2 0.0 0.0
06:11 2.4 0.6 88 1025.2 2.2 NE 2.2 0.0 0.0
06:12 2.4 0.6 88 1025.1 2.2 NE 2.2 0.0 0.0
06:14 2.4 0.6 88 1025.1 2.2 NE 2.2 0.0 0.0
06:15 2.4 0.6 88 1025.1 1.6 N 2.2 0.0 0.0
06:16 2.4 0.6 88 1025.1 1.6 NE 2.2 0.0 0.0
06:17 2.4 0.6 88 1025.0 1.6 N 2.2 0.0 0.0
06:18 2.4 0.6 88 1025.1 2.2 NE 2.2 0.0 0.0
06:19 2.4 0.6 88 1024.9 2.2 NE 2.2 0.0 0.0
06:20 2.4 0.6 88 1024.8 2.2 NE 2.2 0.0 0.0
06:21 2.4 0.6 88 1024.9 2.2 NE 2.2 0.0 0.0
06:22 2.4 0.6 88 1025.1 1.6 NNE 2.2 0.0 0.0
06:23 2.4 0.6 88 1025.1 2.2 NE 2.2 0.0 0.0
06:24 2.4 0.6 88 1025.1 2.2 NE 2.2 0.0 0.0
06:25 2.4 0.6 88 1025.0 2.2 NE 2.2 0.0 0.0
06:26 2.4 0.6 88 1025.1 2.2 NE 2.2 0.0 0.0
06:28 2.4 0.6 88 1025.1 2.2 NE 3.1 0.0 0.0
06:29 2.4 0.6 88 1025.1 3.1 N 3.1 0.0 0.0
06:30 2.4 0.6 88 1025.2 3.1 NE 3.1 0.0 0.0
06:31 2.4 0.6 88 1025.2 2.2 N 3.1 0.0 0.0
06:32 2.5 0.7 88 1025.2 2.2 N 3.1 0.0 0.0
06:33 2.5 0.7 88 1025.2 3.1 N 3.1 0.0 0.0
06:34 2.5 0.7 88 1025.2 2.2 NE 3.1 0.0 0.0
06:35 2.5 0.7 88 1025.1 2.2 N 3.1 0.0 0.0
06:36 2.5 0.7 88 1025.2 3.1 NE 3.1 0.0 0.0
06:37 2.5 0.7 88 1025.2 2.2 NE 3.1 0.0 0.0
06:38 2.5 0.7 88 1025.2 2.2 NE 3.1 0.0 0.0
06:39 2.5 0.7 88 1025.2 2.2 N 3.1 0.0 0.0
06:40 2.5 0.7 88 1025.1 3.1 N 3.1 0.0 0.0
06:42 2.5 0.7 88 1025.1 2.2 N 3.1 0.0 0.0
06:43 2.6 0.8 88 1025.1 2.2 NE 3.1 0.0 0.0
06:44 2.6 0.8 88 1025.1 2.2 N 3.1 0.0 0.0
06:45 2.6 0.8 88 1025.1 3.1 NE 3.1 0.0 0.0
06:46 2.6 0.8 88 1025.2 2.2 NE 3.1 0.0 0.0
06:47 2.6 0.8 88 1025.2 3.1 NE 3.1 0.0 0.0
06:48 2.6 0.8 88 1025.1 2.2 NE 3.1 0.0 0.0
06:49 2.6 0.8 88 1025.2 2.2 N 3.1 0.0 0.0
06:50 2.6 0.8 88 1025.0 2.2 N 3.1 0.0 0.0
06:51 2.6 0.8 88 1025.0 2.2 NE 3.1 0.0 0.0
06:52 2.6 0.8 88 1025.2 2.2 NE 3.1 0.0 0.0
06:53 2.6 0.8 88 1025.2 2.2 N 3.1 0.0 0.0
06:54 2.6 0.8 88 1025.0 1.6 N 3.1 0.0 0.0
06:56 2.6 0.8 88 1025.0 2.2 NE 3.1 0.0 0.0
06:57 2.6 0.8 88 1025.0 2.2 NE 3.1 0.0 0.0
06:58 2.6 0.8 88 1025.2 2.2 NE 2.2 0.0 0.0
06:59 2.6 0.8 88 1025.1 2.2 N 2.2 0.0 0.0
07:00 2.6 0.8 88 1025.1 3.1 N 3.1 0.0 0.0
07:01 2.6 0.8 88 1025.1 3.1 N 3.1 0.0 0.0
07:02 2.6 0.8 88 1025.1 3.1 N 3.1 0.0 0.0
07:03 2.6 0.8 88 1025.1 3.1 N 3.1 0.0 0.0
07:04 2.6 0.8 88 1025.1 3.1 N 3.1 0.0 0.0
07:05 2.7 1.1 89 1025.0 3.1 N 3.1 0.0 0.0
07:06 2.7 1.1 89 1025.0 3.1 NE 3.1 0.0 0.0
07:07 2.7 1.1 89 1025.1 2.2 N 3.1 0.0 0.0
07:08 2.7 1.1 89 1025.0 3.1 N 3.1 0.0 0.0
07:10 2.7 1.1 89 1025.1 3.1 NE 3.1 0.0 0.0
07:11 2.7 1.1 89 1025.2 3.8 N 3.8 0.0 0.0
07:12 2.7 1.1 89 1025.0 3.1 N 3.8 0.0 0.0
07:13 2.7 1.1 89 1025.0 3.8 N 3.8 0.0 0.0
07:14 2.7 1.1 89 1025.0 3.8 NE 3.8 0.0 0.0
07:15 2.7 1.1 89 1025.0 3.8 NE 3.8 0.0 0.0
07:16 2.7 1.1 89 1025.0 3.8 NE 3.8 0.0 0.0
07:17 2.7 1.1 89 1025.1 3.8 NE 3.8 0.0 0.0
07:18 2.7 1.1 89 1025.1 3.1 N 3.8 0.0 0.0
07:19 2.7 1.1 89 1025.1 3.8 N 3.8 0.0 0.0
07:20 2.7 1.1 89 1025.0 3.1 NE 3.8 0.0 0.0
07:21 2.8 1.2 89 1025.2 3.1 NE 3.8 0.0 0.0
07:22 2.7 1.1 89 1025.1 3.1 N 3.8 0.0 0.0
07:23 2.8 1.2 89 1025.1 2.2 N 3.8 0.0 0.0
07:24 2.8 1.2 89 1025.3 2.2 NNE 3.8 0.0 0.0
07:26 2.8 1.2 89 1025.2 2.2 N 3.8 0.0 0.0
07:27 2.8 1.2 89 1025.2 2.2 N 3.8 0.0 0.0
07:28 2.8 1.2 89 1025.1 2.2 N 3.8 0.0 0.0
07:29 2.8 1.2 89 1025.2 3.1 N 3.8 0.0 0.0
07:30 2.8 1.2 89 1025.2 2.2 N 3.1 0.0 0.0
07:31 2.8 1.2 89 1025.2 2.2 N 3.1 0.0 0.0
07:32 2.8 1.2 89 1025.3 2.2 NNW 3.1 0.0 0.0
07:33 2.8 1.2 89 1025.1 2.2 N 3.1 0.0 0.0
07:34 2.8 1.2 89 1025.1 3.1 NE 3.1 0.0 0.0
07:35 2.8 1.2 89 1025.3 3.8 NE 3.8 0.0 0.0
07:36 2.8 1.2 89 1025.2 3.1 N 3.8 0.0 0.0
07:37 2.8 1.2 89 1025.2 3.1 NE 3.8 0.0 0.0
07:38 2.8 1.2 89 1025.3 3.1 N 3.8 0.0 0.0
07:40 2.8 1.2 89 1025.2 3.1 N 3.8 0.0 0.0
07:41 2.8 1.2 89 1025.2 3.1 N 3.8 0.0 0.0
07:42 2.9 1.3 89 1025.2 3.1 NNE 3.8 0.0 0.0
07:43 2.8 1.2 89 1025.3 4.5 NE 4.5 0.0 0.0
07:44 2.9 1.3 89 1025.2 3.8 NE 4.5 0.0 0.0
07:45 2.9 1.3 89 1025.2 3.1 N 4.5 0.0 0.0
07:46 2.9 1.3 89 1025.2 3.8 NE 4.5 0.0 0.0
07:47 2.9 1.3 89 1025.2 3.8 NE 4.5 0.0 0.0
07:48 2.9 1.3 89 1025.2 3.1 N 4.5 0.0 0.0
07:49 2.9 1.3 89 1025.4 3.1 NE 4.5 0.0 0.0
07:50 2.9 1.3 89 1025.5 3.8 N 4.5 0.0 0.0
07:51 2.9 1.3 89 1025.4 3.1 N 4.5 0.0 0.0
07:52 2.9 1.3 89 1025.3 3.1 N 4.5 0.0 0.0
07:53 2.9 1.3 89 1025.3 3.8 N 3.8 0.0 0.0
07:55 2.9 1.3 89 1025.4 4.5 NE 4.5 0.0 0.0
07:56 2.9 1.3 89 1025.4 4.5 NE 4.5 0.0 0.0
07:57 3.0 1.4 89 1025.5 3.1 N 4.5 0.0 0.0
07:58 2.9 1.3 89 1025.6 2.2 NE 4.5 0.0 0.0
07:59 2.9 1.3 89 1025.6 3.1 N 4.5 0.0 0.0
08:00 2.9 1.3 89 1025.5 3.8 N 4.5 0.0 0.0
08:01 2.9 1.3 89 1025.5 3.8 N 4.5 0.0 0.0
08:02 2.9 1.3 89 1025.6 3.8 N 4.5 0.0 0.0
08:03 2.9 1.3 89 1025.5 3.8 N 4.5 0.0 0.0
08:04 2.9 1.3 89 1025.6 3.8 N 4.5 0.0 0.0
08:05 2.9 1.3 89 1025.4 3.1 N 4.5 0.0 0.0
08:06 2.9 1.3 89 1025.6 3.8 N 4.5 0.0 0.0
08:07 3.0 1.4 89 1025.6 2.2 N 3.8 0.0 0.0
08:09 2.9 1.3 89 1025.6 3.1 NE 3.8 0.0 0.0
08:10 2.9 1.3 89 1025.7 1.6 N 3.8 0.0 0.0
08:11 2.9 1.3 89 1025.6 3.1 NE 3.8 0.0 0.0
08:12 2.9 1.3 89 1025.8 3.1 N 3.8 0.0 0.0
08:13 3.0 1.4 89 1025.6 3.1 N 3.8 0.0 0.0
08:14 2.9 1.3 89 1025.6 3.1 NE 3.8 0.0 0.0
08:15 3.0 1.4 89 1025.6 2.2 NE 3.8 0.0 0.0
08:16 3.0 1.4 89 1025.6 2.2 NE 3.8 0.0 0.0
08:17 2.9 1.3 89 1025.5 4.5 NE 4.5 0.0 0.0
08:18 3.0 1.4 89 1025.7 3.1 NE 4.5 0.0 0.0
08:19 3.0 1.4 89 1025.7 2.2 NE 4.5 0.0 0.0
08:20 3.0 1.4 89 1025.6 3.8 NE 4.5 0.0 0.0
08:21 3.0 1.4 89 1025.6 3.1 N 4.5 0.0 0.0
08:23 3.0 1.4 89 1025.6 1.6 N 4.5 0.0 0.0
08:24 3.0 1.4 89 1025.6 1.6 N 4.5 0.0 0.0
08:25 3.0 1.4 89 1025.6 2.2 N 4.5 0.0 0.0
08:26 3.0 1.4 89 1025.7 2.2 N 4.5 0.0 0.0
08:27 3.0 1.4 89 1025.7 2.2 N 4.5 0.0 0.0
08:28 3.0 1.4 89 1025.7 3.1 N 3.8 0.0 0.0
08:29 3.0 1.4 89 1025.8 3.1 NE 3.8 0.0 0.0
08:30 3.1 1.5 89 1025.7 4.5 NE 4.5 0.0 0.0
08:31 3.0 1.4 89 1025.8 4.5 NE 4.5 0.0 0.0
08:32 3.1 1.5 89 1025.7 3.8 N 4.5 0.0 0.0
08:33 3.1 1.5 89 1025.6 3.8 N 4.5 0.0 0.0
08:34 3.1 1.5 89 1025.7 3.8 NE 4.5 0.0 0.0
08:35 3.1 1.5 89 1025.9 4.5 N 4.5 0.0 0.0
08:37 3.1 1.5 89 1025.8 4.5 NE 5.4 0.0 0.0
08:38 3.1 1.5 89 1026.0 5.4 NE 5.4 0.0 0.0
08:39 3.1 1.5 89 1026.0 4.5 N 5.4 0.0 0.0
08:40 3.1 1.5 89 1025.9 4.5 N 5.4 0.0 0.0
08:41 3.1 1.5 89 1026.0 4.5 N 5.4 0.0 0.0
08:42 3.1 1.5 89 1026.0 3.8 NE 5.4 0.0 0.0
08:43 3.1 1.5 89 1025.8 3.1 N 5.4 0.0 0.0
08:44 3.1 1.5 89 1026.0 4.5 NE 5.4 0.0 0.0
08:45 3.2 1.6 89 1026.1 0.7 N 5.4 0.0 0.0
08:46 3.2 1.6 89 1026.1 1.6 NE 5.4 0.0 0.0
08:47 3.2 1.6 89 1026.1 1.6 N 5.4 0.0 0.0
08:48 3.2 1.6 89 1026.1 0.7 NE 5.4 0.0 0.0
08:49 3.2 1.6 89 1025.9 0.7 NE 5.4 0.0 0.0
08:51 3.2 1.6 89 1026.1 0.7 N 4.5 0.0 0.0
08:52 3.2 1.6 89 1026.1 0.7 N 4.5 0.0 0.0
08:53 3.2 1.6 89 1026.1 0.7 N 4.5 0.0 0.0
08:54 3.2 1.6 89 1026.2 1.6 NW 3.8 0.0 0.0
08:55 3.2 1.6 89 1026.1 0.7 NW 1.6 0.0 0.0
08:56 3.2 1.6 89 1026.2 2.2 N 2.2 0.0 0.0
08:57 3.2 1.6 89 1026.2 3.8 NE 3.8 0.0 0.0
08:58 3.2 1.6 89 1026.2 3.1 N 3.8 0.0 0.0
08:59 3.2 1.6 89 1026.2 3.1 NE 3.8 0.0 0.0
09:00 3.2 1.6 89 1026.2 3.8 NE 3.8 0.0 0.0
09:01 3.2 1.6 89 1026.2 3.8 NE 3.8 0.0 0.0
09:02 3.2 1.6 89 1026.2 3.8 NE 3.8 0.0 0.0
09:03 3.2 1.6 89 1026.2 3.8 NE 3.8 0.0 0.0
09:04 3.2 1.6 89 1026.2 3.8 NE 3.8 0.0 0.0
09:06 3.2 1.7 90 1026.2 3.8 N 4.5 0.0 0.0
09:07 3.3 1.7 89 1026.0 3.1 N 4.5 0.0 0.0
09:08 3.3 1.8 90 1026.2 3.1 N 4.5 0.0 0.0
09:09 3.3 1.7 89 1026.2 3.1 N 4.5 0.0 0.0
09:10 3.3 1.8 90 1026.2 1.6 N 4.5 0.0 0.0
09:11 3.3 1.8 90 1026.2 1.6 N 4.5 0.0 0.0
09:12 3.3 1.8 90 1026.2 2.2 NE 4.5 0.0 0.0
09:13 3.3 1.8 90 1026.3 1.6 NE 4.5 0.0 0.0
09:14 3.3 1.8 90 1026.2 1.6 N 4.5 0.0 0.0
09:15 3.4 1.9 90 1026.3 0.7 N 3.8 0.0 0.0
09:16 3.4 1.9 90 1026.4 0.7 N 3.1 0.0 0.0
09:17 3.4 1.9 90 1026.4 1.6 N 3.1 0.0 0.0
09:18 3.4 1.9 90 1026.4 0.7 N 3.1 0.0 0.0
09:20 3.4 1.9 90 1026.4 2.2 NW 2.2 0.0 0.0
09:21 3.4 1.9 90 1026.4 3.1 N 3.1 0.0 0.0
09:22 3.4 1.9 90 1026.3 1.6 N 3.1 0.0 0.0
09:23 3.4 1.9 90 1026.4 2.2 NW 3.1 0.0 0.0
09:24 3.4 1.9 90 1026.5 2.2 N 3.1 0.0 0.0
09:25 3.5 2.0 90 1026.4 1.6 N 3.1 0.0 0.0
09:26 3.5 2.0 90 1026.5 1.6 N 3.1 0.0 0.0
09:27 3.5 2.0 90 1026.5 1.6 N 3.1 0.0 0.0
09:28 3.5 2.0 90 1026.5 1.6 N 3.1 0.0 0.0
09:29 3.5 2.0 90 1026.5 2.2 NW 3.1 0.0 0.0
09:30 3.5 2.0 90 1026.5 3.1 N 3.1 0.0 0.0
09:31 3.5 2.0 90 1026.5 3.1 N 3.1 0.0 0.0
09:32 3.6 2.1 90 1026.7 2.2 N 3.1 0.0 0.0
09:33 3.6 2.1 90 1026.7 3.1 NE 3.1 0.0 0.0
09:35 3.6 2.1 90 1026.6 2.2 N 3.8 0.0 0.0
09:36 3.6 2.1 90 1026.6 2.2 N 3.8 0.0 0.0
09:37 3.6 2.1 90 1026.7 3.1 N 3.8 0.0 0.0
09:38 3.6 2.1 90 1026.8 2.2 N 3.8 0.0 0.0
09:39 3.6 2.1 90 1026.8 3.8 N 3.8 0.0 0.0
09:40 3.6 2.1 90 1026.7 3.1 NW 3.8 0.0 0.0
09:41 3.6 2.1 90 1026.9 3.8 N 3.8 0.0 0.0
09:42 3.6 2.1 90 1027.0 4.5 N 4.5 0.0 0.0
09:43 3.6 2.1 90 1026.9 4.5 NE 4.5 0.0 0.0
09:44 3.6 2.1 90 1026.9 4.5 N 4.5 0.0 0.0
09:45 3.7 2.2 90 1026.8 3.1 N 4.5 0.0 0.0
09:46 3.7 2.2 90 1026.9 4.5 NE 4.5 0.0 0.0
09:47 3.7 2.2 90 1026.8 3.8 NW 4.5 0.0 0.0
09:49 3.8 2.3 90 1026.7 2.2 NW 4.5 0.0 0.0
09:50 3.8 2.3 90 1026.9 2.2 NW 4.5 0.0 0.0
09:51 3.8 2.3 90 1026.7 5.4 N 5.4 0.0 0.0
09:52 3.9 2.4 90 1026.9 3.8 NE 5.4 0.0 0.0
09:53 4.0 2.5 90 1026.8 2.2 NE 5.4 0.0 0.0
09:54 4.0 2.5 90 1026.8 3.1 N 5.4 0.0 0.0
09:55 4.0 2.5 90 1026.9 3.1 N 5.4 0.0 0.0
09:56 4.1 2.6 90 1026.6 3.1 NE 5.4 0.0 0.0
09:57 4.2 2.7 90 1026.7 3.1 N 5.4 0.0 0.0
09:58 4.2 2.7 90 1026.9 3.8 N 5.4 0.0 0.0
09:59 4.3 2.8 90 1026.8 3.1 N 5.4 0.0 0.0
10:00 4.3 2.8 90 1026.8 3.1 N 5.4 0.0 0.0
10:01 4.3 2.8 90 1026.9 3.1 N 3.8 0.0 0.0
10:02 4.3 2.8 90 1026.7 3.1 N 3.8 0.0 0.0
10:03 4.3 2.8 90 1027.0 3.1 N 3.8 0.0 0.0
10:05 4.7 3.4 91 1027.0 2.2 N 3.8 0.0 0.0
10:06 4.8 3.5 91 1027.0 3.8 NE 3.8 0.0 0.0
10:07 4.9 3.6 91 1027.0 2.2 N 3.8 0.0 0.0
10:08 4.9 3.6 91 1027.0 3.1 E 3.8 0.0 0.0
10:09 5.0 3.7 91 1027.0 3.8 NE 4.5 0.0 0.0
10:10 5.0 3.7 91 1027.0 3.8 N 4.5 0.0 0.0
10:11 5.1 3.8 91 1026.9 1.6 N 4.5 0.0 0.0
10:12 5.1 3.8 91 1027.0 6.0 N 6.0 0.0 0.0
10:13 5.2 3.9 91 1027.0 3.8 N 6.0 0.0 0.0
10:14 5.3 4.0 91 1027.1 3.1 NE 6.0 0.0 0.0
10:15 5.3 4.0 91 1027.0 2.2 NW 6.0 0.0 0.0
10:16 5.4 4.1 91 1026.9 3.8 E 6.0 0.0 0.0
10:17 5.4 4.1 91 1027.1 3.1 NE 6.0 0.0 0.0
10:19 5.5 4.1 91 1027.1 2.2 NW 6.0 0.0 0.0
10:20 5.5 4.1 91 1027.1 2.2 NW 6.0 0.0 0.0
10:21 5.6 4.2 91 1027.0 3.1 ENE 6.0 0.0 0.0
10:22 5.6 4.2 91 1026.9 3.1 NE 6.0 0.0 0.0
10:23 5.7 4.3 91 1027.1 3.8 N 4.5 0.0 0.0
10:24 5.7 4.3 91 1027.0 6.9 NE 6.9 0.0 0.0
10:25 5.8 4.4 91 1027.0 3.8 NE 6.9 0.0 0.0
10:26 5.8 4.4 91 1027.0 5.4 NE 6.9 0.0 0.0
10:27 5.9 4.5 91 1027.0 2.2 N 6.9 0.0 0.0
10:28 5.9 4.5 91 1027.1 3.8 NE 6.9 0.0 0.0
10:29 6.0 4.6 91 1027.1 3.1 NE 6.9 0.0 0.0
10:30 6.0 4.6 91 1027.0 3.1 NW 6.9 0.0 0.0
10:31 6.1 4.7 91 1027.2 3.1 N 7.6 0.0 0.0
10:33 6.2 4.8 91 1027.1 4.5 N 7.6 0.0 0.0
10:34 6.2 4.8 91 1027.0 5.4 NE 7.6 0.0 0.0
10:35 6.2 4.8 91 1027.0 6.0 N 7.6 0.0 0.0
10:36 6.3 4.9 91 1026.9 3.8 NE 7.6 0.0 0.0
10:37 6.3 4.9 91 1027.1 7.6 SW 7.6 0.0 0.0
10:38 6.4 5.0 91 1027.0 3.8 NE 7.6 0.0 0.0
10:39 6.4 5.0 91 1027.0 4.5 NE 7.6 0.0 0.0
10:40 6.4 5.0 91 1027.2 4.5 NE 7.6 0.0 0.0
10:41 6.5 5.1 91 1027.1 7.6 NE 9.2 0.0 0.0
10:42 6.5 5.1 91 1027.1 6.9 N 9.2 0.0 0.0
10:43 6.6 5.2 91 1027.0 9.2 NE 9.2 0.0 0.0
10:44 6.6 5.2 91 1027.1 7.6 N 9.2 0.0 0.0
10:45 6.6 5.2 91 1027.2 5.4 N 9.2 0.0 0.0
10:47 6.7 5.3 91 1027.1 6.0 NE 9.2 0.0 0.0
10:48 6.7 5.3 91 1027.1 6.0 NE 9.2 0.0 0.0
10:49 6.7 5.3 91 1027.2 9.8 NE 9.8 0.8 0.1
10:50 6.7 5.3 91 1027.2 4.5 NE 9.8 0.8 0.1
10:51 6.8 5.4 91 1027.1 2.2 N 9.8 0.8 0.1
10:52 6.8 5.3 90 1027.1 6.9 S 9.8 0.8 0.1
10:53 6.9 5.5 91 1027.0 3.1 NE 9.8 0.8 0.1
10:54 6.9 5.5 91 1027.0 1.6 W 9.8 0.0 0.1
10:55 7.0 5.5 90 1026.9 7.6 N 9.8 0.0 0.1
10:56 7.0 5.5 90 1026.9 3.8 E 9.8 0.0 0.1
10:57 7.1 5.6 90 1027.1 6.9 N 9.8 0.0 0.1
10:58 7.1 5.6 90 1027.1 7.6 NE 9.8 0.0 0.1
10:59 7.2 5.7 90 1027.1 6.0 NE 7.6 0.0 0.1
11:01 7.2 5.7 90 1027.1 6.0 NE 7.6 0.0 0.1
11:02 7.2 5.7 90 1027.1 6.0 NE 7.6 0.0 0.1
11:03 7.2 5.7 90 1027.1 6.0 NE 7.6 0.0 0.1
11:04 7.2 5.7 90 1027.2 6.0 NE 7.6 0.0 0.1
11:05 7.5 6.0 90 1027.1 3.8 NE 7.6 0.0 0.1
11:06 7.5 6.0 90 1027.2 5.4 N 7.6 0.0 0.1
11:07 7.5 6.0 90 1027.2 6.9 NE 7.6 0.0 0.1
11:08 7.6 6.1 90 1027.1 6.0 E 7.6 0.0 0.1
11:09 7.7 6.2 90 1027.2 5.4 N 6.9 0.0 0.1
11:10 7.7 6.2 90 1027.2 6.0 N 6.9 0.0 0.1
11:11 7.7 6.0 89 1027.2 5.4 N 6.9 0.0 0.1
11:12 7.8 6.3 90 1027.2 3.8 NE 6.9 0.0 0.1
11:13 7.8 6.1 89 1027.2 3.8 NE 6.9 0.0 0.1
11:15 7.9 6.2 89 1027.2 8.3 N 8.3 0.0 0.1
11:16 7.9 6.2 89 1027.2 8.3 N 8.3 0.0 0.1
11:17 7.9 6.2 89 1027.2 6.9 NE 8.3 0.0 0.1
11:18 7.9 6.2 89 1027.0 6.0 NE 8.3 0.0 0.1
11:19 7.9 6.2 89 1027.2 6.9 N 8.3 0.0 0.1
11:20 8.0 6.3 89 1027.0 6.9 NNE 8.3 0.0 0.1
11:21 8.0 6.3 89 1027.1 6.9 N 8.3 0.0 0.1
11:22 8.1 6.2 88 1027.2 8.3 NW 8.3 0.0 0.1
11:23 8.1 6.4 89 1027.0 9.8 NE 9.8 0.0 0.1
11:24 8.1 6.2 88 1027.1 6.9 N 9.8 0.0 0.1
11:25 8.2 6.3 88 1027.1 6.0 NE 9.8 0.0 0.1
11:26 8.3 6.4 88 1027.1 6.0 NE 9.8 0.0 0.1
11:27 8.4 6.5 88 1027.2 6.9 N 9.8 0.0 0.1
11:29 8.5 6.6 88 1027.0 3.8 N 9.8 0.0 0.1
11:30 8.5 6.6 88 1027.1 7.6 NE 9.8 0.0 0.1
11:31 8.5 6.5 87 1027.1 9.2 NE 9.8 0.0 0.1
11:32 8.4 6.4 87 1027.0 9.8 NE 9.8 0.0 0.1
11:33 8.4 6.2 86 1027.0 6.0 N 9.8 0.0 0.1
11:34 8.5 6.3 86 1027.0 5.4 NE 9.8 0.0 0.1
11:35 8.5 6.1 85 1027.1 7.6 NE 9.8 0.0 0.1
11:36 8.4 5.9 84 1027.0 7.6 NE 9.8 0.0 0.1
11:37 8.4 5.5 82 1027.2 3.8 WSW 9.8 0.0 0.1
11:38 8.3 5.4 82 1027.1 10.7 NE 10.7 0.0 0.1
11:39 8.3 5.1 80 1027.2 7.6 E 10.7 0.0 0.1
11:40 8.2 5.0 80 1027.2 5.4 N 10.7 0.0 0.1
11:41 8.2 5.0 80 1027.1 7.6 N 10.7 0.0 0.1
11:43 8.3 5.1 80 1027.2 1.6 ENE 10.7 0.0 0.1
11:44 8.3 5.1 80 1027.2 1.6 ENE 10.7 0.0 0.1
11:45 8.4 5.3 81 1027.3 7.6 N 10.7 0.0 0.1
11:46 8.5 5.4 81 1027.3 6.9 NE 10.7 0.0 0.1
11:47 8.5 5.4 81 1027.3 7.6 N 10.7 0.0 0.1
11:48 8.6 5.3 80 1027.2 8.3 NE 10.7 0.0 0.1
11:49 8.6 5.3 80 1027.4 4.5 N 9.8 0.0 0.1
11:50 8.6 5.2 79 1027.3 6.0 N 9.8 0.0 0.1
11:51 8.6 5.2 79 1027.3 7.6 NW 9.8 0.0 0.1
11:52 8.5 4.9 78 1027.3 9.8 ENE 9.8 0.0 0.1
11:53 8.5 4.9 78 1027.4 7.6 NE 9.8 0.0 0.1
11:54 8.5 4.7 77 1027.3 6.9 N 9.8 0.0 0.1
11:55 8.6 4.6 76 1027.4 6.0 N 9.8 0.0 0.1
11:56 8.6 4.6 76 1027.4 4.5 NE 9.8 0.0 0.1
11:58 8.7 4.9 77 1027.3 6.0 NE 9.8 0.0 0.1
11:59 8.7 4.9 77 1027.4 5.4 N 9.8 0.0 0.1
12:00 8.8 5.0 77 1027.3 3.1 NE 9.8 0.0 0.1
12:01 8.8 5.0 77 1027.4 3.1 NE 9.8 0.0 0.1
12:02 8.8 5.0 77 1027.4 3.1 NE 9.8 0.0 0.1
12:03 8.8 5.0 77 1027.4 3.1 NE 7.6 0.0 0.1
12:04 8.8 5.0 77 1027.4 3.1 NE 6.9 0.0 0.1
12:05 9.0 4.6 74 1027.5 3.8 NE 6.0 0.0 0.1
12:06 9.0 4.6 74 1027.5 6.0 N 6.0 0.0 0.1
12:07 9.0 4.4 73 1027.4 12.1 NE 12.1 0.0 0.1
12:08 9.0 4.2 72 1027.2 7.6 N 12.1 0.0 0.1
12:09 8.9 3.9 71 1027.4 7.6 NE 12.1 0.0 0.1
12:10 8.9 3.9 71 1027.3 6.9 N 12.1 0.0 0.1
12:12 8.8 3.8 71 1027.4 4.5 NE 12.1 0.0 0.1
12:13 8.7 3.7 71 1027.2 6.0 NE 12.1 0.0 0.1
12:14 8.7 3.7 71 1027.4 4.5 NE 12.1 0.0 0.1
12:15 8.7 3.7 71 1027.4 9.2 NNE 12.1 0.0 0.1
12:16 8.7 3.9 72 1027.3 10.7 NE 12.1 0.0 0.1
12:17 8.7 3.9 72 1027.4 5.4 NE 12.1 0.0 0.1
12:18 8.7 3.9 72 1027.4 7.6 NE 10.7 0.0 0.1
12:19 8.8 3.8 71 1027.4 6.0 NE 10.7 0.0 0.1
12:20 8.8 3.8 71 1027.4 8.3 N 10.7 0.0 0.1
12:21 8.8 3.8 71 1027.5 10.7 N 10.7 0.0 0.1
12:22 8.8 3.8 71 1027.6 8.3 E 10.7 0.0 0.1
12:23 8.8 3.8 71 1027.4 7.6 N 10.7 0.0 0.1
12:24 8.8 3.8 71 1027.5 7.6 N 10.7 0.0 0.1
12:26 8.8 3.8 71 1027.4 7.6 N 10.7 0.0 0.1
12:27 8.8 3.8 71 1027.5 7.6 N 10.7 0.0 0.1
12:28 8.8 3.8 71 1027.7 7.6 N 10.7 0.0 0.1
12:29 8.8 3.8 71 1027.5 7.6 N 10.7 0.0 0.1
12:30 8.8 3.8 71 1027.5 7.6 N 10.7 0.0 0.1
12:31 8.8 3.8 71 1027.5 7.6 N 10.7 0.0 0.1
12:32 8.8 3.8 71 1027.5 7.6 N 10.7 0.0 0.1
12:33 8.8 3.8 71 1027.7 7.6 N 10.7 0.0 0.1
12:34 8.8 3.8 71 1027.6 7.6 N 10.7 0.0 0.1
12:35 8.8 3.8 71 1027.6 7.6 N 10.7 0.0 0.1
12:36 8.8 3.8 71 1027.5 7.6 N 10.7 0.0 0.1
12:37 8.8 3.8 71 1027.7 7.6 N 10.7 0.0 0.1
12:38 8.8 3.8 71 1027.6 7.6 N 10.7 0.0 0.1
12:40 8.8 3.8 71 1027.7 7.6 N 10.7 0.0 0.1
12:41 8.8 3.8 71 1027.7 7.6 N 10.7 0.0 0.1
12:42 8.8 3.8 71 1027.7 7.6 N 10.7 0.0 0.1
12:43 8.8 3.6 70 1027.6 8.3 N 8.3 0.0 0.1
12:44 8.8 3.6 70 1027.9 8.3 N 8.3 0.0 0.1
12:45 8.8 3.6 70 1027.8 8.3 N 8.3 0.0 0.1
12:46 8.8 3.6 70 1027.8 8.3 N 8.3 0.0 0.1
12:47 8.8 3.6 70 1027.8 8.3 N 8.3 0.0 0.1
12:48 8.8 3.8 71 1027.9 9.8 NE 9.8 0.0 0.1
12:49 8.9 3.7 70 1027.9 8.3 N 9.8 0.0 0.1
12:50 8.9 3.7 70 1027.9 6.9 NE 9.8 0.0 0.1
12:51 8.9 3.7 70 1027.8 5.4 N 9.8 0.0 0.1
12:52 8.9 3.7 70 1027.9 7.6 E 9.8 0.0 0.1
12:54 8.9 3.5 69 1027.9 7.6 N 9.8 0.0 0.1
12:55 8.9 3.5 69 1027.8 7.6 N 9.8 0.0 0.1
12:56 8.9 3.5 69 1027.9 7.6 NNE 9.8 0.0 0.1
12:57 8.9 3.5 69 1028.0 9.2 NE 9.8 0.0 0.1
12:58 8.9 3.5 69 1027.9 5.4 N 9.8 0.0 0.1
12:59 8.9 3.5 69 1027.9 5.4 N 9.2 0.0 0.1
13:00 9.0 3.6 69 1027.9 6.9 NNE 9.2 0.0 0.1
13:01 9.0 3.6 69 1028.0 6.9 NNE 9.2 0.0 0.1
13:02 9.2 4.0 70 1028.0 5.4 NE 9.2 0.0 0.1
13:03 9.2 4.0 70 1028.0 5.4 NE 9.2 0.0 0.1
13:04 9.3 3.9 69 1027.9 4.5 E 9.2 0.0 0.1
13:05 9.3 3.9 69 1028.2 11.4 N 11.4 0.0 0.1
13:06 9.3 3.9 69 1028.0 9.2 E 11.4 0.0 0.1
13:08 9.3 3.9 69 1027.9 7.6 NE 11.4 0.0 0.1
13:09 9.3 3.9 69 1027.9 7.6 NE 11.4 0.0 0.1
13:10 9.3 3.7 68 1028.1 8.3 N 11.4 0.0 0.1
13:11 9.3 3.7 68 1028.2 7.6 NE 11.4 0.0 0.1
13:12 9.3 3.7 68 1028.0 7.6 NE 11.4 0.0 0.1
13:13 9.3 3.7 68 1028.1 3.1 E 11.4 0.0 0.1
13:14 9.3 3.7 68 1028.0 3.1 E 11.4 0.0 0.1
13:15 9.5 3.9 68 1028.0 2.2 E 11.4 0.0 0.1
13:16 9.5 3.9 68 1028.0 6.0 N 9.2 0.0 0.1
13:17 9.5 4.1 69 1028.1 8.3 NE 9.2 0.0 0.1
13:18 9.5 3.9 68 1028.2 2.2 N 8.3 0.0 0.1
13:19 9.5 3.9 68 1028.0 2.2 N 8.3 0.0 0.1
13:20 9.5 3.9 68 1028.0 5.4 NE 8.3 0.0 0.1
13:21 9.5 3.9 68 1027.9 3.8 NE 8.3 0.0 0.1
13:23 9.5 3.9 68 1028.1 11.4 N 11.4 0.0 0.1
13:24 9.5 3.7 67 1028.0 8.3 N 11.4 0.0 0.1
13:25 9.5 3.7 67 1028.1 8.3 N 11.4 0.0 0.1
13:26 9.5 3.7 67 1028.0 6.0 NE 11.4 0.0 0.1
13:27 9.5 3.5 66 1028.1 5.4 N 11.4 0.0 0.1
13:28 9.5 3.7 67 1028.0 6.9 NE 11.4 0.0 0.1
13:29 9.4 3.6 67 1028.0 9.8 NE 11.4 0.0 0.1
13:30 9.4 3.4 66 1028.0 7.6 N 11.4 0.0 0.1
13:31 9.4 3.4 66 1028.2 8.3 NE 11.4 0.0 0.1
13:32 9.3 3.3 66 1028.2 5.4 NW 11.4 0.0 0.1
13:33 9.4 3.6 67 1028.1 3.8 NE 9.8 0.0 0.1
13:34 9.4 3.6 67 1028.2 3.8 NE 9.8 0.0 0.1
13:35 9.4 3.6 67 1028.1 3.8 NE 9.8 0.0 0.1
13:37 9.2 2.7 64 1028.1 6.0 N 10.7 0.0 0.1
13:38 9.1 2.9 65 1028.2 4.5 NW 10.7 0.0 0.1
13:39 9.1 2.9 65 1028.2 4.5 NW 10.7 0.0 0.1
13:40 9.1 2.9 65 1028.1 4.5 NW 10.7 0.0 0.1
13:41 9.1 2.9 65 1028.1 4.5 NW 10.7 0.0 0.1
13:42 9.2 2.7 64 1028.0 6.0 ENE 10.7 0.0 0.1
13:43 9.2 3.2 66 1028.1 5.4 N 10.7 0.0 0.1
13:44 9.2 3.2 66 1028.1 5.4 N 10.7 0.0 0.1
13:45 9.2 3.0 65 1028.1 6.9 WNW 10.7 0.0 0.1
13:46 9.2 3.0 65 1028.0 6.9 E 10.7 0.0 0.1
13:47 9.2 3.0 65 1028.0 7.6 NE 8.3 0.0 0.1
13:48 9.2 3.0 65 1028.2 3.8 NE 8.3 0.0 0.1
13:49 9.2 3.0 65 1028.2 3.8 NE 8.3 0.0 0.1
13:51 9.2 3.0 65 1028.2 4.5 NE 8.3 0.0 0.1
13:52 9.2 3.0 65 1028.1 6.0 NE 7.6 0.0 0.1
13:53 9.2 3.0 65 1028.1 7.6 NE 7.6 0.0 0.1
13:54 9.1 2.7 64 1028.0 6.0 N 7.6 0.0 0.1
13:55 9.1 2.7 64 1027.9 3.8 E 7.6 0.0 0.1
13:56 9.1 2.7 64 1028.0 3.8 NE 7.6 0.0 0.1
13:57 9.1 2.7 64 1028.0 5.4 NE 7.6 0.0 0.1
13:58 9.1 2.7 64 1027.9 5.4 NE 7.6 0.0 0.1
13:59 9.1 2.7 64 1027.9 5.4 NE 7.6 0.0 0.1
14:00 9.1 2.7 64 1028.1 5.4 NE 7.6 0.0 0.1
14:01 9.1 2.9 65 1028.1 2.2 N 7.6 0.0 0.1
14:02 9.1 2.9 65 1028.2 3.1 NE 7.6 0.0 0.1
14:03 9.1 2.9 65 1027.9 3.1 NE 7.6 0.0 0.1
14:05 9.1 2.9 65 1028.0 3.1 NE 5.4 0.0 0.1
14:06 9.1 2.9 65 1028.1 3.1 NE 5.4 0.0 0.1
14:07 9.3 2.6 63 1028.1 6.9 NE 6.9 0.0 0.1
14:08 9.3 2.6 63 1028.1 6.9 NE 6.9 0.0 0.1
14:09 9.3 2.6 63 1028.1 6.9 NE 6.9 0.0 0.1
14:10 9.2 2.5 63 1028.2 7.6 N 7.6 0.0 0.1
14:11 9.2 2.5 63 1028.1 6.9 NE 7.6 0.0 0.1
14:12 9.2 2.1 61 1028.2 6.9 NNE 7.6 0.0 0.1
14:13 9.2 2.3 62 1028.1 6.0 NE 7.6 0.0 0.1
14:14 9.2 2.3 62 1028.1 6.0 N 7.6 0.0 0.1
14:15 9.2 2.3 62 1028.2 5.4 NW 7.6 0.0 0.1
14:16 9.2 2.1 61 1028.0 5.4 NE 7.6 0.0 0.1
14:17 9.2 2.1 61 1028.0 5.4 NE 7.6 0.0 0.1
14:19 9.1 1.5 59 1028.2 6.9 NE 7.6 0.0 0.1
14:20 9.1 1.5 59 1028.2 7.6 N 7.6 0.0 0.1
14:21 9.1 1.5 59 1028.2 7.6 N 7.6 0.0 0.1
14:22 9.1 1.5 59 1028.2 10.7 NE 10.7 0.0 0.1
14:23 9.1 1.3 58 1028.1 9.8 NNE 10.7 0.0 0.1
14:24 9.1 1.3 58 1028.2 9.8 NNE 10.7 0.0 0.1
14:25 9.0 1.7 60 1028.2 10.7 E 10.7 0.0 0.1
14:26 9.1 1.5 59 1028.2 3.8 NW 10.7 0.0 0.1
14:27 9.1 1.5 59 1028.3 3.8 NW 10.7 0.0 0.1
14:28 9.1 1.5 59 1028.3 5.4 N 10.7 0.0 0.1
14:29 9.1 1.5 59 1028.1 9.2 NE 10.7 0.0 0.1
14:30 9.1 1.5 59 1028.1 3.8 NE 10.7 0.0 0.1
14:31 9.1 1.5 59 1028.2 9.2 N 10.7 0.0 0.1
14:32 9.1 1.3 58 1028.2 6.0 NE 10.7 0.0 0.1
14:34 9.0 1.4 59 1028.3 6.9 NE 10.7 0.0 0.1
14:35 9.0 1.4 59 1028.4 6.9 NE 10.7 0.0 0.1
14:36 9.0 1.4 59 1028.3 6.9 NE 9.2 0.0 0.1
14:37 9.0 1.4 59 1028.4 6.9 NE 9.2 0.0 0.1
14:38 9.0 1.4 59 1028.4 6.9 NE 9.2 0.0 0.1
14:39 9.0 1.4 59 1028.2 6.9 NE 9.2 0.0 0.1
14:40 8.9 1.3 59 1028.2 7.6 N 9.2 0.0 0.1
14:41 8.9 1.3 59 1028.2 7.6 N 9.2 0.0 0.1
14:42 8.9 1.3 59 1028.4 5.4 E 7.6 0.0 0.1
14:43 8.9 1.3 59 1028.2 3.8 N 7.6 0.0 0.1
14:44 9.0 1.4 59 1028.5 6.0 NE 7.6 0.0 0.1
14:45 9.0 1.4 59 1028.4 4.5 NW 7.6 0.0 0.1
14:46 9.0 1.4 59 1028.4 6.9 N 7.6 0.0 0.1
14:48 9.0 1.4 59 1028.4 2.2 NE 7.6 0.0 0.1
14:49 9.0 1.4 59 1028.4 2.2 NE 7.6 0.0 0.1
14:50 9.0 1.4 59 1028.4 2.2 NE 7.6 0.0 0.1
14:51 9.0 1.4 59 1028.5 2.2 NE 7.6 0.0 0.1
14:52 9.0 1.4 59 1028.5 2.2 NE 6.9 0.0 0.1
14:53 9.1 1.3 58 1028.3 3.1 N 6.9 0.0 0.1
14:54 9.2 1.1 57 1028.4 3.8 NE 6.9 0.0 0.1
14:55 9.2 0.9 56 1028.4 3.8 NE 6.9 0.0 0.1
14:56 9.2 1.1 57 1028.3 3.1 NE 6.9 0.0 0.1
14:57 9.2 1.1 57 1028.6 7.6 NE 7.6 0.0 0.1
14:58 9.1 0.8 56 1028.5 4.5 NE 7.6 0.0 0.1
14:59 9.1 0.5 55 1028.6 5.4 NE 7.6 0.0 0.1
15:00 9.1 0.5 55 1028.5 5.4 NE 7.6 0.0 0.1
15:02 9.1 0.5 55 1028.6 5.4 NE 7.6 0.0 0.1
15:03 9.1 0.5 55 1028.7 5.4 NE 7.6 0.0 0.1
15:04 8.9 0.6 56 1028.7 5.4 N 7.6 0.0 0.1
15:05 8.9 0.6 56 1028.7 5.4 NE 7.6 0.0 0.1
15:06 8.8 0.3 55 1028.5 4.5 N 7.6 0.0 0.1
15:07 8.8 0.3 55 1028.5 4.5 N 7.6 0.0 0.1
15:08 8.8 0.3 55 1028.5 4.5 N 5.4 0.0 0.1
15:09 8.7 0.4 56 1028.5 5.4 E 5.4 0.0 0.1
15:10 8.7 0.4 56 1028.6 4.5 NE 5.4 0.0 0.1
15:11 8.7 0.4 56 1028.6 4.5 NE 5.4 0.0 0.1
15:12 8.7 0.2 55 1028.5 2.2 E 5.4 0.0 0.1
15:13 8.7 -0.1 54 1028.7 1.6 W 5.4 0.0 0.1
15:14 8.7 -0.3 53 1028.8 1.6 W 5.4 0.0 0.1
15:15 8.7 -0.3 53 1028.7 5.4 W 5.4 0.0 0.1
15:17 8.6 -0.2 54 1028.7 8.3 NE 8.3 0.0 0.1
15:18 8.6 0.1 55 1028.7 6.9 N 8.3 0.0 0.1
15:19 8.6 0.1 55 1028.8 4.5 NE 8.3 0.0 0.1
15:20 8.6 0.1 55 1028.6 4.5 NE 8.3 0.0 0.1
15:21 8.6 -0.4 53 1028.7 3.8 E 8.3 0.0 0.1
15:22 8.5 -0.5 53 1028.7 3.8 N 8.3 0.0 0.1
15:23 8.5 -0.5 53 1028.7 3.1 N 8.3 0.0 0.1
15:24 8.5 0.0 55 1028.8 3.8 N 8.3 0.0 0.1
15:25 8.5 0.0 55 1028.8 3.8 N 8.3 0.0 0.1
15:26 8.5 0.0 55 1028.8 5.4 NE 8.3 0.0 0.1
15:27 8.4 -0.1 55 1028.7 5.4 NE 8.3 0.0 0.1
15:28 8.4 -0.1 55 1028.7 3.1 NE 6.9 0.0 0.1
15:29 8.5 0.0 55 1028.9 3.1 NE 5.4 0.0 0.1
15:30 8.5 0.0 55 1028.8 3.1 NE 5.4 0.0 0.1
15:32 8.5 0.2 56 1028.9 1.6 NW 5.4 0.0 0.1
15:33 8.5 0.2 56 1028.9 1.6 NW 5.4 0.0 0.1
15:34 8.5 0.0 55 1028.9 3.1 NW 5.4 0.0 0.1
15:35 8.5 0.0 55 1028.9 3.1 NW 5.4 0.0 0.1
15:36 8.4 0.1 56 1028.8 2.2 NE 5.4 0.0 0.1
15:37 8.4 0.1 56 1028.8 2.2 NE 5.4 0.0 0.1
15:38 8.4 0.1 56 1029.0 3.8 N 5.4 0.0 0.1
15:39 8.4 0.1 56 1028.8 3.8 N 3.8 0.0 0.1
15:40 8.3 -0.2 55 1028.9 2.2 NW 3.8 0.0 0.1
15:41 8.3 -0.2 55 1028.9 2.2 NW 3.8 0.0 0.1
15:42 8.3 -0.5 54 1028.9 1.6 NW 3.8 0.0 0.1
15:43 8.3 -0.5 54 1029.0 1.6 NW 3.8 0.0 0.1
15:44 8.2 -0.1 56 1028.9 2.2 N 3.8 0.0 0.1
15:46 8.2 -0.3 55 1028.8 1.6 E 3.8 0.0 0.1
15:47 8.2 -0.3 55 1028.9 2.2 E 3.8 0.0 0.1
15:48 8.2 -0.3 55 1028.9 2.2 E 3.8 0.0 0.1
15:49 8.1 -0.4 55 1028.9 3.1 N 3.8 0.0 0.1
15:50 8.1 -0.4 55 1029.1 1.6 NE 3.1 0.0 0.1
15:51 8.0 -0.7 54 1029.0 1.6 E 3.1 0.0 0.1
15:52 8.0 -0.7 54 1029.0 1.6 E 3.1 0.0 0.1
15:53 8.0 -0.7 54 1029.1 1.6 E 3.1 0.0 0.1
15:54 8.0 -0.7 54 1029.0 1.6 E 3.1 0.0 0.1
15:55 8.0 -0.7 54 1028.9 1.6 E 3.1 0.0 0.1
15:56 8.0 -0.7 54 1029.1 1.6 E 3.1 0.0 0.1
15:57 8.0 -0.2 56 1029.2 0.7 NE 3.1 0.0 0.1
15:59 8.0 -0.2 56 1029.3 0.7 NE 1.6 0.0 0.1
16:00 7.9 -0.6 55 1029.2 3.8 N 3.8 0.0 0.1
16:01 7.9 -0.6 55 1029.2 3.8 N 3.8 0.0 0.1
16:02 7.9 -0.3 56 1029.2 1.6 NE 3.8 0.0 0.1
16:03 7.9 -0.3 56 1029.3 1.6 NE 3.8 0.0 0.1
16:04 7.9 -0.3 56 1029.3 1.6 NE 3.8 0.0 0.1
16:05 7.9 -0.3 56 1029.2 1.6 NE 3.8 0.0 0.1
16:06 7.7 -0.5 56 1029.3 2.2 NE 3.8 0.0 0.1
16:07 7.6 -0.6 56 1029.5 1.6 NE 3.8 0.0 0.1
16:08 7.6 -0.6 56 1029.6 1.6 NE 3.8 0.0 0.1
16:09 7.5 -0.5 57 1029.4 1.6 E 3.8 0.0 0.1
16:10 7.5 -0.5 57 1029.4 1.6 E 3.8 0.0 0.1
16:11 7.5 -0.5 57 1029.3 1.6 E 2.2 0.0 0.1
16:12 7.5 -0.5 57 1029.4 1.6 E 2.2 0.0 0.1
16:14 7.3 -0.7 57 1029.6 2.2 N 2.2 0.0 0.1
16:15 7.3 -0.7 57 1029.6 3.8 N 3.8 0.0 0.1
16:16 7.3 -0.7 57 1029.6 3.8 N 3.8 0.0 0.1
16:17 7.3 -0.7 57 1029.5 3.8 N 3.8 0.0 0.1
16:18 7.3 -0.7 57 1029.7 3.8 N 3.8 0.0 0.1
16:19 7.3 -0.7 57 1029.7 3.8 N 3.8 0.0 0.1
16:20 7.0 -0.7 58 1029.6 3.1 NE 3.8 0.0 0.1
16:21 7.0 -0.7 58 1029.6 3.1 NE 3.8 0.0 0.1
16:22 6.8 -1.1 57 1029.8 2.2 NE 3.8 0.0 0.1
16:23 6.8 -1.1 57 1029.6 2.2 NE 3.8 0.0 0.1
16:24 6.7 -1.2 57 1029.9 4.5 NE 4.5 0.0 0.1
16:25 6.7 -1.2 57 1029.8 3.1 N 4.5 0.0 0.1
16:26 6.7 -1.2 57 1029.8 3.1 N 4.5 0.0 0.1
16:28 6.7 -1.2 57 1029.9 3.1 N 4.5 0.0 0.1
16:29 6.7 -1.2 57 1029.9 3.1 N 4.5 0.0 0.1
16:30 6.7 -1.2 57 1029.9 3.1 N 4.5 0.0 0.1
16:31 6.7 -1.2 57 1030.0 3.1 N 4.5 0.0 0.1
16:32 6.7 -1.2 57 1030.0 3.1 N 4.5 0.0 0.1
16:33 6.7 -1.2 57 1030.0 3.1 N 4.5 0.0 0.1
16:34 6.1 -1.8 57 1029.8 4.5 NE 4.5 0.0 0.1
16:35 6.1 -1.8 57 1030.0 4.5 NE 4.5 0.0 0.1
16:36 6.1 -1.8 57 1029.9 4.5 NE 4.5 0.0 0.1
16:37 6.1 -1.8 57 1029.9 4.5 NE 4.5 0.0 0.1
16:38 5.9 -2.0 57 1029.8 4.5 NE 4.5 0.0 0.1
16:39 5.9 -2.0 57 1029.8 4.5 NE 4.5 0.0 0.1
16:40 5.8 -1.8 58 1029.7 3.8 NE 4.5 0.0 0.1
16:42 5.8 -1.8 58 1029.8 3.1 N 4.5 0.0 0.1
16:43 5.8 -1.8 58 1029.9 2.2 N 4.5 0.0 0.1
16:44 5.8 -1.8 58 1030.0 2.2 N 4.5 0.0 0.1
16:45 5.8 -1.8 58 1029.9 2.2 N 4.5 0.0 0.1
16:46 5.8 -1.8 58 1029.9 2.2 N 4.5 0.0 0.1
16:47 5.8 -1.8 58 1030.1 2.2 N 4.5 0.0 0.1
16:48 5.8 -1.8 58 1030.0 2.2 N 4.5 0.0 0.1
16:49 5.8 -1.8 58 1030.0 2.2 N 4.5 0.0 0.1
16:50 5.8 -1.8 58 1030.1 2.2 N 3.8 0.0 0.1
16:51 5.8 -1.8 58 1030.0 2.2 N 3.8 0.0 0.1
16:52 5.8 -1.8 58 1029.9 2.2 N 3.8 0.0 0.1
16:53 5.8 -1.8 58 1030.0 2.2 N 3.8 0.0 0.1
16:54 5.4 -2.2 58 1030.0 5.4 NE 5.4 0.0 0.1
16:56 5.3 -2.3 58 1030.1 3.1 N 5.4 0.0 0.1
16:57 5.3 -2.3 58 1030.1 3.1 N 5.4 0.0 0.1
16:58 5.3 -2.3 58 1030.1 3.1 N 5.4 0.0 0.1
16:59 5.3 -2.3 58 1030.2 3.1 N 5.4 0.0 0.1
17:00 5.3 -2.3 58 1030.2 3.1 N 5.4 0.0 0.1
17:01 5.3 -2.3 58 1030.3 3.1 N 5.4 0.0 0.1
17:02 5.3 -2.3 58 1030.4 3.1 N 5.4 0.0 0.1
17:03 5.3 -2.3 58 1030.4 3.1 N 5.4 0.0 0.1
17:04 5.3 -2.3 58 1030.4 3.1 N 5.4 0.0 0.1
17:05 5.3 -2.3 58 1030.4 3.1 N 3.1 0.0 0.1
17:06 5.3 -2.3 58 1030.4 3.1 N 3.1 0.0 0.1
17:07 5.3 -2.3 58 1030.3 3.1 N 3.1 0.0 0.1
17:08 5.3 -2.3 58 1030.3 3.1 N 3.1 0.0 0.1
17:10 5.3 -2.3 58 1030.4 3.1 N 3.1 0.0 0.1
17:11 5.3 -2.3 58 1030.3 3.1 N 3.1 0.0 0.1
17:12 5.3 -2.3 58 1030.5 3.1 N 3.1 0.0 0.1
17:13 5.3 -2.3 58 1030.4 3.1 N 3.1 0.0 0.1
17:14 5.3 -2.3 58 1030.6 3.1 N 3.1 0.0 0.1
17:15 5.3 -2.3 58 1030.4 3.1 N 3.1 0.0 0.1
17:16 5.3 -2.3 58 1030.6 3.1 N 3.1 0.0 0.1
17:17 5.3 -2.3 58 1030.7 3.1 N 3.1 0.0 0.1
17:18 5.3 -2.3 58 1030.5 3.1 N 3.1 0.0 0.1
17:19 5.3 -2.3 58 1030.5 3.1 N 3.1 0.0 0.1
17:20 5.3 -2.3 58 1030.6 3.1 N 3.1 0.0 0.1
17:21 5.3 -2.3 58 1030.5 3.1 N 3.1 0.0 0.1
17:22 5.3 -2.3 58 1030.6 3.1 N 3.1 0.0 0.1
17:23 5.3 -2.3 58 1030.5 3.1 N 3.1 0.0 0.1
17:24 5.3 -2.3 58 1030.5 3.1 N 3.1 0.0 0.1
17:26 5.3 -2.3 58 1030.7 3.1 N 3.1 0.0 0.1
17:27 5.3 -2.3 58 1030.7 3.1 N 3.1 0.0 0.1
17:28 5.3 -2.3 58 1030.7 3.1 N 3.1 0.0 0.1
17:29 3.8 -2.8 62 1030.8 3.8 NE 3.8 0.0 0.1
17:30 3.8 -2.8 62 1030.7 3.8 NE 3.8 0.0 0.1
17:31 3.8 -2.8 62 1030.7 3.8 NE 3.8 0.0 0.1
17:32 3.8 -2.8 62 1030.9 3.8 NE 3.8 0.0 0.1
17:33 3.8 -2.8 62 1030.7 3.8 NE 3.8 0.0 0.1
17:34 3.8 -2.8 62 1030.8 3.8 NE 3.8 0.0 0.1
17:35 3.8 -2.8 62 1030.8 3.8 NE 3.8 0.0 0.1
17:36 3.8 -2.8 62 1030.9 3.8 NE 3.8 0.0 0.1
17:37 3.8 -2.8 62 1030.8 3.8 NE 3.8 0.0 0.1
17:39 3.8 -2.8 62 1030.8 3.8 NE 3.8 0.0 0.1
17:40 3.8 -2.8 62 1030.8 3.8 NE 3.8 0.0 0.1
17:41 3.8 -2.8 62 1030.8 3.8 NE 3.8 0.0 0.1
17:42 3.8 -2.8 62 1030.8 3.8 NE 3.8 0.0 0.1
17:43 3.8 -2.8 62 1030.8 3.8 NE 3.8 0.0 0.1
17:44 3.5 -2.9 63 1030.9 4.5 NE 4.5 0.0 0.1
17:45 3.5 -2.9 63 1030.9 4.5 NE 4.5 0.0 0.1
17:46 3.5 -2.9 63 1031.1 4.5 NE 4.5 0.0 0.1
17:47 3.5 -2.9 63 1031.1 4.5 NE 4.5 0.0 0.1
17:48 3.5 -2.9 63 1031.0 4.5 NE 4.5 0.0 0.1
17:49 3.5 -2.9 63 1031.1 4.5 NE 4.5 0.0 0.1
17:50 3.5 -2.9 63 1031.1 4.5 NE 4.5 0.0 0.1
17:51 3.5 -2.9 63 1031.2 4.5 NE 4.5 0.0 0.1
17:52 3.5 -2.9 63 1031.1 4.5 NE 4.5 0.0 0.1
17:54 3.2 -2.9 64 1031.1 6.0 N 6.0 0.0 0.1
17:55 3.2 -2.9 64 1031.2 6.0 N 6.0 0.0 0.1
17:56 3.2 -2.9 64 1031.2 6.0 N 6.0 0.0 0.1
17:57 3.2 -2.9 64 1031.3 6.0 N 6.0 0.0 0.1
17:58 3.2 -2.9 64 1031.3 6.0 N 6.0 0.0 0.1
17:59 3.2 -2.9 64 1031.3 6.0 N 6.0 0.0 0.1
18:00 3.2 -2.9 64 1031.3 6.0 N 6.0 0.0 0.1
18:01 3.2 -2.9 64 1031.3 6.0 N 6.0 0.0 0.1
18:02 3.2 -2.9 64 1031.3 6.0 N 6.0 0.0 0.1
18:03 3.2 -2.9 64 1031.4 6.0 N 6.0 0.0 0.1
18:04 3.2 -2.9 64 1031.5 6.0 N 6.0 0.0 0.1
18:05 3.2 -2.9 64 1031.5 6.0 N 6.0 0.0 0.1
18:06 3.2 -2.9 64 1031.5 6.0 N 6.0 0.0 0.1
18:08 3.2 -2.9 64 1031.7 6.0 N 6.0 0.0 0.1
18:09 3.2 -2.9 64 1031.7 6.0 N 6.0 0.0 0.1
18:10 3.2 -2.9 64 1031.8 6.0 N 6.0 0.0 0.1
18:11 3.2 -2.9 64 1031.8 6.0 N 6.0 0.0 0.1
18:12 3.2 -2.9 64 1031.7 6.0 N 6.0 0.0 0.1
18:13 3.2 -2.9 64 1031.7 6.0 N 6.0 0.0 0.1
18:14 3.2 -2.9 64 1031.9 6.0 N 6.0 0.0 0.1
18:15 3.2 -2.9 64 1032.0 6.0 N 6.0 0.0 0.1
18:16 3.2 -2.9 64 1031.9 6.0 N 6.0 0.0 0.1
18:17 3.2 -2.9 64 1031.9 6.0 N 6.0 0.0 0.1
18:18 3.2 -2.9 64 1032.0 6.0 N 6.0 0.0 0.1
18:19 3.2 -2.9 64 1031.9 6.0 N 6.0 0.0 0.1
18:20 3.2 -2.9 64 1031.8 6.0 N 6.0 0.0 0.1
18:22 3.2 -2.9 64 1031.7 6.0 N 6.0 0.0 0.1
18:23 3.2 -2.9 64 1031.8 6.0 N 6.0 0.0 0.1
18:24 3.2 -2.9 64 1032.0 6.0 N 6.0 0.0 0.1
18:25 3.2 -2.9 64 1031.8 6.0 N 6.0 0.0 0.1
18:26 3.2 -2.9 64 1031.9 6.0 N 6.0 0.0 0.1
18:27 3.2 -2.9 64 1032.0 6.0 N 6.0 0.0 0.1
18:28 3.2 -2.9 64 1032.0 6.0 N 6.0 0.0 0.1
18:29 3.2 -2.9 64 1032.0 6.0 N 6.0 0.0 0.1
18:30 3.2 -2.9 64 1031.8 6.0 N 6.0 0.0 0.1
18:31 3.2 -2.9 64 1032.1 6.0 N 6.0 0.0 0.1
18:32 2.6 -2.9 67 1032.1 4.5 NE 4.5 0.0 0.1
18:33 2.6 -2.9 67 1032.2 4.5 NE 4.5 0.0 0.1
18:34 2.6 -2.9 67 1032.1 4.5 NE 4.5 0.0 0.1
18:36 2.6 -2.9 67 1032.1 3.1 N 4.5 0.0 0.1
18:37 2.6 -2.9 67 1032.1 3.1 N 4.5 0.0 0.1
18:38 2.6 -2.9 67 1032.2 4.5 NW 4.5 0.0 0.1
18:39 2.6 -2.9 67 1032.2 3.1 NW 4.5 0.0 0.1
18:40 2.6 -2.9 67 1032.2 3.1 NW 4.5 0.0 0.1
18:41 2.6 -2.9 67 1032.3 3.1 NW 4.5 0.0 0.1
18:42 2.6 -2.9 67 1032.4 3.1 NW 4.5 0.0 0.1
18:43 2.6 -2.9 67 1032.2 3.1 NW 4.5 0.0 0.1
18:44 2.6 -2.9 67 1032.3 3.1 NW 4.5 0.0 0.1
18:45 2.5 -2.8 68 1032.4 3.8 N 4.5 0.0 0.1
18:46 2.5 -2.8 68 1032.5 3.8 N 4.5 0.0 0.1
18:47 2.5 -2.8 68 1032.5 4.5 N 4.5 0.0 0.1
18:48 2.5 -2.8 68 1032.5 4.5 N 4.5 0.0 0.1
18:50 2.5 -2.8 68 1032.6 4.5 N 4.5 0.0 0.1
18:51 2.5 -2.8 68 1032.6 4.5 N 4.5 0.0 0.1
18:52 2.5 -2.8 68 1032.7 4.5 N 4.5 0.0 0.1
18:53 2.5 -2.8 68 1032.6 4.5 N 4.5 0.0 0.1
18:54 2.5 -2.8 68 1032.6 4.5 N 4.5 0.0 0.1
18:55 2.5 -2.8 68 1032.7 4.5 N 4.5 0.0 0.1
18:56 2.5 -2.8 68 1032.7 4.5 N 4.5 0.0 0.1
18:57 2.5 -2.8 68 1032.7 4.5 N 4.5 0.0 0.1
18:58 2.3 -3.0 68 1032.7 3.1 NE 4.5 0.0 0.1
18:59 2.3 -3.0 68 1032.7 3.1 NE 4.5 0.0 0.1
19:00 2.3 -3.0 68 1032.7 3.1 NE 4.5 0.0 0.1
19:01 2.3 -3.0 68 1032.9 3.1 NE 4.5 0.0 0.1
19:03 2.3 -3.0 68 1032.8 3.1 NE 4.5 0.0 0.1
19:04 2.3 -3.0 68 1032.9 3.1 NE 4.5 0.0 0.1
19:05 2.3 -2.8 69 1032.8 3.8 NE 3.8 0.0 0.1
19:07 2.2 -2.9 69 1032.7 4.5 NE 4.5 0.0 0.1
19:08 2.2 -2.9 69 1032.9 4.5 NE 4.5 0.0 0.1
19:09 2.2 -2.9 69 1032.9 3.8 NE 4.5 0.0 0.1
19:10 2.2 -2.9 69 1033.0 3.8 NE 4.5 0.0 0.1
19:11 2.2 -2.9 69 1033.2 3.8 NE 4.5 0.0 0.1
19:12 2.2 -2.9 69 1033.2 3.8 NE 4.5 0.0 0.1
19:13 2.2 -2.9 69 1033.1 3.8 NE 4.5 0.0 0.1
19:14 2.2 -2.9 69 1033.1 3.8 NE 4.5 0.0 0.1
19:15 2.2 -2.9 69 1033.2 3.8 NE 4.5 0.0 0.1
19:16 2.2 -2.9 69 1033.3 4.5 N 4.5 0.0 0.1
19:17 2.2 -2.9 69 1033.2 4.5 N 4.5 0.0 0.1
19:18 2.2 -2.9 69 1033.2 4.5 N 4.5 0.0 0.1
19:19 2.2 -2.9 69 1033.3 4.5 N 4.5 0.0 0.1
19:20 2.1 -2.8 70 1033.3 4.5 N 4.5 0.0 0.1
19:21 2.1 -2.8 70 1033.4 4.5 N 4.5 0.0 0.1
19:22 2.1 -2.8 70 1033.3 4.5 N 4.5 0.0 0.1
19:24 2.1 -2.8 70 1033.3 4.5 N 4.5 0.0 0.1
19:25 2.1 -2.8 70 1033.3 4.5 N 4.5 0.0 0.1
19:26 2.1 -2.8 70 1033.4 4.5 N 4.5 0.0 0.1
19:27 2.1 -2.8 70 1033.3 3.1 NNE 4.5 0.0 0.1
19:28 2.1 -2.8 70 1033.3 3.1 NNE 4.5 0.0 0.1
19:29 2.1 -2.8 70 1033.3 3.1 NNE 4.5 0.0 0.1
19:30 2.1 -2.8 70 1033.4 3.1 NNE 4.5 0.0 0.1
19:31 2.1 -2.8 70 1033.5 3.1 NNE 4.5 0.0 0.1
19:32 2.1 -2.8 70 1033.7 3.1 NNE 4.5 0.0 0.1
19:33 2.0 -2.9 70 1033.5 3.8 NE 4.5 0.0 0.1
19:34 2.0 -2.7 71 1033.6 3.8 N 4.5 0.0 0.1
19:35 2.0 -2.7 71 1033.6 4.5 N 4.5 0.0 0.1
19:36 2.0 -2.7 71 1033.5 4.5 N 4.5 0.0 0.1
19:37 2.0 -2.7 71 1033.5 4.5 N 4.5 0.0 0.1
19:39 2.0 -2.7 71 1033.6 4.5 N 4.5 0.0 0.1
19:40 2.0 -2.7 71 1033.7 3.8 NW 4.5 0.0 0.1
19:41 2.1 -2.6 71 1033.7 3.1 N 4.5 0.0 0.1
19:42 2.1 -2.6 71 1033.7 3.1 N 4.5 0.0 0.1
19:43 2.0 -2.7 71 1033.8 3.1 NW 4.5 0.0 0.1
19:44 2.0 -2.7 71 1033.7 3.1 NW 4.5 0.0 0.1
19:45 2.0 -2.7 71 1033.8 3.1 NW 4.5 0.0 0.1
19:46 2.0 -2.7 71 1033.8 3.1 NW 4.5 0.0 0.1
19:47 2.0 -2.7 71 1033.8 3.1 NW 4.5 0.0 0.1
19:48 2.0 -2.7 71 1033.7 3.1 NW 4.5 0.0 0.1
19:49 2.0 -2.7 71 1033.7 4.5 NE 4.5 0.0 0.1
19:50 2.0 -2.7 71 1033.8 4.5 NE 4.5 0.0 0.1
19:51 2.0 -2.7 71 1033.7 4.5 NW 4.5 0.0 0.1
19:52 2.0 -2.7 71 1033.8 4.5 N 4.5 0.0 0.1
19:54 2.0 -2.5 72 1033.8 3.8 NE 4.5 0.0 0.1
19:55 2.0 -2.5 72 1033.6 3.1 NE 4.5 0.0 0.1
19:56 2.0 -2.5 72 1033.7 3.1 NE 4.5 0.0 0.1
19:57 2.0 -2.5 72 1033.7 3.8 NE 4.5 0.0 0.1
19:58 2.0 -2.5 72 1033.6 3.8 NE 4.5 0.0 0.1
19:59 2.0 -2.5 72 1033.6 3.8 N 4.5 0.0 0.1
20:00 2.0 -2.5 72 1033.6 3.8 N 4.5 0.0 0.1
20:01 2.0 -2.5 72 1033.6 3.8 N 4.5 0.0 0.1
20:02 2.0 -2.5 72 1033.7 3.8 N 4.5 0.0 0.1
20:03 2.0 -2.5 72 1033.7 3.8 N 3.8 0.0 0.1
20:04 2.0 -2.5 72 1033.8 3.8 N 3.8 0.0 0.1
20:05 2.0 -2.5 72 1033.9 3.8 N 3.8 0.0 0.1
20:06 2.0 -2.5 72 1033.9 3.8 N 3.8 0.0 0.1
20:07 2.0 -2.5 72 1034.0 3.8 N 3.8 0.0 0.1
20:09 2.2 -2.3 72 1034.1 4.5 SW 4.5 0.0 0.1
20:10 2.2 -2.3 72 1034.0 4.5 SW 4.5 0.0 0.1
20:11 2.2 -2.3 72 1034.1 4.5 SW 4.5 0.0 0.1
20:12 2.2 -2.3 72 1033.9 4.5 SW 4.5 0.0 0.1
20:13 2.2 -2.3 72 1034.1 4.5 SW 4.5 0.0 0.1
20:14 2.2 -2.3 72 1034.1 4.5 SW 4.5 0.0 0.1
20:15 2.2 -2.3 72 1034.2 4.5 SW 4.5 0.0 0.1
20:16 2.2 -2.3 72 1034.2 4.5 SW 4.5 0.0 0.1
20:17 2.1 -2.4 72 1034.1 3.1 NW 4.5 0.0 0.1
20:18 2.0 -2.5 72 1034.1 3.1 N 4.5 0.0 0.1
20:19 2.0 -2.5 72 1034.1 3.1 N 4.5 0.0 0.1
20:20 2.0 -2.5 72 1034.3 3.1 N 4.5 0.0 0.1
20:21 2.0 -2.5 72 1034.4 3.8 N 4.5 0.0 0.1
20:22 1.9 -2.6 72 1034.3 3.1 NE 4.5 0.0 0.1
20:24 1.9 -2.6 72 1034.4 3.8 N 4.5 0.0 0.1
20:25 1.9 -2.6 72 1034.4 3.8 N 4.5 0.0 0.1
20:26 1.8 -2.7 72 1034.5 3.8 N 4.5 0.0 0.1
20:27 1.8 -2.7 72 1034.5 3.8 N 3.8 0.0 0.1
20:28 1.8 -2.7 72 1034.4 3.8 N 3.8 0.0 0.1
20:29 1.8 -2.7 72 1034.5 4.5 N 4.5 0.0 0.1
20:30 1.8 -2.5 73 1034.6 4.5 NE 4.5 0.0 0.1
20:31 1.8 -2.5 73 1034.6 4.5 NE 4.5 0.0 0.1
20:32 1.8 -2.5 73 1034.6 4.5 NE 4.5 0.0 0.1
20:33 1.7 -2.6 73 1034.7 3.8 NE 5.4 0.0 0.1
20:34 1.7 -2.6 73 1034.7 3.8 NE 5.4 0.0 0.1
20:35 1.7 -2.6 73 1034.5 3.8 NE 5.4 0.0 0.1
20:36 1.7 -2.6 73 1034.7 3.8 NE 5.4 0.0 0.1
20:38 1.7 -2.6 73 1034.8 3.8 NE 5.4 0.0 0.1
20:39 1.7 -2.6 73 1034.8 3.8 NE 5.4 0.0 0.1
20:40 1.7 -2.6 73 1034.9 3.8 NE 5.4 0.0 0.1
20:41 1.7 -2.6 73 1034.7 3.8 NE 5.4 0.0 0.1
20:42 1.7 -2.6 73 1034.8 4.5 N 5.4 0.0 0.1
20:43 1.7 -2.6 73 1035.0 4.5 N 4.5 0.0 0.1
20:44 1.7 -2.6 73 1035.0 4.5 N 4.5 0.0 0.1
20:45 1.7 -2.6 73 1035.0 4.5 N 4.5 0.0 0.1
20:46 1.7 -2.6 73 1035.0 4.5 N 4.5 0.0 0.1
20:47 1.7 -2.6 73 1034.9 3.1 N 4.5 0.0 0.1
20:48 1.7 -2.6 73 1035.0 3.8 N 4.5 0.0 0.1
20:49 1.7 -2.6 73 1035.1 3.8 N 4.5 0.0 0.1
20:50 1.6 -2.7 73 1035.0 3.1 N 4.5 0.0 0.1
20:51 1.6 -2.7 73 1035.1 2.2 N 4.5 0.0 0.1
20:52 1.6 -2.7 73 1035.1 2.2 NW 4.5 0.0 0.1
20:54 1.6 -2.5 74 1035.2 3.1 NE 4.5 0.0 0.1
20:55 1.6 -2.5 74 1035.2 2.2 NE 4.5 0.0 0.1
20:56 1.6 -2.7 73 1035.3 2.2 NE 4.5 0.0 0.1
20:57 1.6 -2.7 73 1035.2 2.2 NNE 3.8 0.0 0.1
20:58 1.6 -2.7 73 1035.1 2.2 NNE 3.8 0.0 0.1
20:59 1.5 -2.8 73 1035.2 3.1 N 3.8 0.0 0.1
21:00 1.5 -2.8 73 1035.1 2.2 N 3.8 0.0 0.1
21:01 1.5 -2.8 73 1035.3 2.2 N 3.8 0.0 0.1
21:02 1.5 -2.8 73 1035.3 2.2 N 3.8 0.0 0.1
21:03 1.5 -2.8 73 1035.3 2.2 N 3.1 0.0 0.1
21:04 1.5 -2.8 73 1035.3 2.2 N 3.1 0.0 0.1
21:05 1.4 -2.7 74 1035.4 2.2 N 3.1 0.0 0.1
21:06 1.4 -2.7 74 1035.3 3.1 N 3.1 0.0 0.1
21:07 1.4 -2.7 74 1035.4 3.1 N 3.1 0.0 0.1
21:09 1.4 -2.7 74 1035.4 2.2 NE 3.1 0.0 0.1
21:10 1.4 -2.7 74 1035.4 2.2 NE 3.1 0.0 0.1
21:11 1.4 -2.7 74 1035.6 3.1 NE 3.1 0.0 0.1
21:12 1.4 -2.7 74 1035.3 3.1 NE 3.1 0.0 0.1
21:13 1.4 -2.7 74 1035.3 3.1 N 3.1 0.0 0.1
21:14 1.4 -2.7 74 1035.6 3.1 N 3.1 0.0 0.1
21:15 1.4 -2.7 74 1035.5 3.1 NE 3.1 0.0 0.1
21:16 1.4 -2.7 74 1035.6 3.1 N 3.1 0.0 0.1
21:17 1.3 -2.8 74 1035.4 3.8 N 3.8 0.0 0.1
21:18 1.3 -2.8 74 1035.5 3.8 E 3.8 0.0 0.1
21:19 1.3 -2.8 74 1035.5 4.5 N 4.5 0.0 0.1
21:20 1.2 -2.9 74 1035.5 3.1 N 4.5 0.0 0.1
21:21 1.3 -2.8 74 1035.4 3.8 NE 4.5 0.0 0.1
21:22 1.3 -2.8 74 1035.6 3.8 NE 4.5 0.0 0.1
21:23 1.3 -2.8 74 1035.4 3.8 NE 4.5 0.0 0.1
21:25 1.3 -2.8 74 1035.5 3.1 NNE 4.5 0.0 0.1
21:26 1.3 -2.8 74 1035.5 3.1 N 4.5 0.0 0.1
21:27 1.3 -2.8 74 1035.4 3.1 N 4.5 0.0 0.1
21:28 1.4 -2.7 74 1035.4 2.2 N 4.5 0.0 0.1
21:29 1.4 -2.7 74 1035.5 3.1 N 4.5 0.0 0.1
21:30 1.4 -2.7 74 1035.6 3.1 N 3.8 0.0 0.1
21:31 1.4 -2.7 74 1035.5 3.1 N 3.8 0.0 0.1
21:32 1.4 -2.7 74 1035.6 3.1 N 3.8 0.0 0.1
21:33 1.4 -2.7 74 1035.6 3.1 N 3.8 0.0 0.1
21:34 1.4 -2.7 74 1035.6 3.1 N 3.8 0.0 0.1
21:35 1.4 -2.7 74 1035.7 3.1 N 3.1 0.0 0.1
21:36 1.3 -2.8 74 1035.7 2.2 N 3.1 0.0 0.1
21:37 1.3 -2.8 74 1035.7 3.1 N 3.1 0.0 0.1
21:38 1.3 -2.8 74 1035.6 3.1 N 3.1 0.0 0.1
21:40 1.3 -2.8 74 1035.6 2.2 NW 3.1 0.0 0.1
21:41 1.3 -2.8 74 1035.7 2.2 NW 3.1 0.0 0.1
21:42 1.3 -2.8 74 1035.7 3.1 NW 3.1 0.0 0.1
21:43 1.3 -2.8 74 1035.8 3.1 NW 3.1 0.0 0.1
21:44 1.3 -2.8 74 1035.7 3.1 NW 3.1 0.0 0.1
21:45 1.3 -2.8 74 1035.9 1.6 NW 3.1 0.0 0.1
21:46 1.3 -2.8 74 1035.9 3.1 NW 3.1 0.0 0.1
21:47 1.3 -2.8 74 1035.9 1.6 N 3.1 0.0 0.1
21:48 1.3 -2.8 74 1036.0 1.6 N 3.1 0.0 0.1
21:49 1.3 -2.8 74 1035.8 1.6 N 3.1 0.0 0.1
21:50 1.2 -2.9 74 1036.0 2.2 N 3.1 0.0 0.1
21:51 1.2 -2.9 74 1036.0 2.2 N 3.1 0.0 0.1
21:52 1.2 -2.9 74 1036.1 3.1 NE 3.1 0.0 0.1
21:53 1.2 -2.9 74 1036.1 2.2 N 3.1 0.0 0.1
21:55 1.2 -2.9 74 1036.1 1.6 N 3.1 0.0 0.1
21:56 1.2 -2.9 74 1036.1 1.6 N 3.1 0.0 0.1
21:57 1.2 -2.9 74 1036.1 1.6 N 3.1 0.0 0.1
21:58 1.2 -2.9 74 1036.2 1.6 N 3.1 0.0 0.1
21:59 1.2 -2.9 74 1036.1 1.6 N 3.1 0.0 0.1
22:00 1.2 -2.9 74 1036.1 1.6 N 3.1 0.0 0.1
22:01 1.2 -2.9 74 1036.2 1.6 N 3.1 0.0 0.1
22:02 1.2 -2.9 74 1036.2 1.6 N 3.1 0.0 0.1
22:03 1.2 -2.9 74 1036.2 1.6 N 2.2 0.0 0.1
22:04 1.2 -2.9 74 1036.2 1.6 N 2.2 0.0 0.1
22:05 1.2 -2.9 74 1036.2 1.6 N 1.6 0.0 0.1
22:06 1.2 -2.9 74 1036.2 1.6 N 1.6 0.0 0.1
22:07 1.2 -2.9 74 1036.2 1.6 N 1.6 0.0 0.1
22:09 1.0 -2.9 75 1036.2 3.8 NE 3.8 0.0 0.1
22:10 1.0 -2.9 75 1036.2 3.8 NE 3.8 0.0 0.1
22:11 1.0 -2.9 75 1036.3 3.8 NE 3.8 0.0 0.1
22:12 1.0 -2.9 75 1036.3 3.8 NE 3.8 0.0 0.1
22:13 1.0 -2.9 75 1036.3 3.8 NE 3.8 0.0 0.1
22:14 1.0 -2.9 75 1036.2 3.8 NNE 3.8 0.0 0.1
22:15 1.0 -2.9 75 1036.2 3.8 NNE 3.8 0.0 0.1
22:16 1.0 -2.9 75 1036.3 2.2 N 3.8 0.0 0.1
22:17 1.0 -2.9 75 1036.4 2.2 N 3.8 0.0 0.1
22:18 1.0 -2.9 75 1036.3 2.2 N 3.8 0.0 0.1
22:19 1.1 -2.8 75 1036.3 1.6 N 3.8 0.0 0.1
22:20 1.1 -2.8 75 1036.4 2.2 N 3.8 0.0 0.1
22:21 1.1 -2.8 75 1036.4 1.6 N 3.8 0.0 0.1
22:22 1.0 -2.9 75 1036.3 2.2 N 3.8 0.0 0.1
22:23 1.0 -2.9 75 1036.5 2.2 N 3.8 0.0 0.1
22:25 1.0 -2.9 75 1036.5 2.2 N 3.1 0.0 0.1
22:26 1.0 -2.9 75 1036.4 2.2 N 3.1 0.0 0.1
22:27 1.0 -2.9 75 1036.4 1.6 NW 3.1 0.0 0.1
22:28 1.0 -2.9 75 1036.4 2.2 N 2.2 0.0 0.1
22:29 1.0 -2.9 75 1036.4 2.2 N 2.2 0.0 0.1
22:30 1.0 -2.9 75 1036.5 1.6 NW 2.2 0.0 0.1
22:31 1.0 -2.9 75 1036.5 1.6 NW 2.2 0.0 0.1
22:32 1.0 -2.9 75 1036.5 3.1 N 3.1 0.0 0.1
22:33 1.0 -2.9 75 1036.6 2.2 N 3.1 0.0 0.1
22:34 1.0 -2.9 75 1036.6 3.1 NE 3.1 0.0 0.1
22:35 1.0 -2.9 75 1036.7 2.2 N 3.1 0.0 0.1
22:36 1.0 -2.9 75 1036.7 2.2 N 3.1 0.0 0.1
22:37 1.0 -2.9 75 1036.8 2.2 N 3.1 0.0 0.1
22:38 1.0 -2.9 75 1036.8 1.6 N 3.1 0.0 0.1
22:40 1.0 -2.9 75 1036.7 3.1 NE 3.1 0.0 0.1
22:41 1.0 -2.9 75 1036.7 3.1 NE 3.1 0.0 0.1
22:42 1.0 -2.9 75 1036.9 3.1 N 3.1 0.0 0.1
22:43 1.0 -2.9 75 1036.9 3.1 N 3.1 0.0 0.1
22:44 1.0 -2.9 75 1036.9 2.2 N 3.1 0.0 0.1
22:45 1.0 -2.9 75 1036.9 1.6 N 3.1 0.0 0.1
22:46 1.0 -2.7 76 1036.9 3.1 NE 3.1 0.0 0.1
22:47 1.0 -2.7 76 1036.9 3.1 NE 3.1 0.0 0.1
22:48 1.0 -2.7 76 1036.9 3.1 N 3.1 0.0 0.1
22:49 1.0 -2.7 76 1037.1 3.1 N 3.1 0.0 0.1
22:50 1.0 -2.7 76 1037.1 3.1 N 3.1 0.0 0.1
22:51 1.0 -2.7 76 1037.2 3.1 N 3.1 0.0 0.1
22:52 1.1 -2.6 76 1037.2 3.1 N 3.1 0.0 0.1
22:53 1.1 -2.6 76 1037.2 3.1 N 3.1 0.0 0.1
22:55 1.1 -2.6 76 1037.1 3.8 NE 3.8 0.0 0.1
22:56 1.1 -2.6 76 1037.1 2.2 NE 3.8 0.0 0.1
22:57 1.1 -2.6 76 1037.1 3.1 NE 3.8 0.0 0.1
22:58 1.1 -2.6 76 1037.1 3.1 N 3.8 0.0 0.1
22:59 1.1 -2.6 76 1037.2 3.8 N 3.8 0.0 0.1
23:00 1.1 -2.6 76 1037.1 4.5 NE 4.5 0.0 0.1
23:01 1.1 -2.6 76 1036.9 4.5 NE 4.5 0.0 0.1
23:02 1.1 -2.6 76 1036.8 4.5 NE 4.5 0.0 0.1
23:03 1.1 -2.6 76 1036.9 4.5 NE 4.5 0.0 0.1
23:04 1.1 -2.6 76 1037.0 4.5 NE 4.5 0.0 0.1
23:05 1.1 -2.6 76 1036.8 4.5 NE 4.5 0.0 0.1
23:06 1.1 -2.6 76 1037.0 4.5 NE 4.5 0.0 0.1
23:07 1.1 -2.6 76 1037.0 4.5 NE 4.5 0.0 0.1
23:09 1.3 -2.5 76 1037.3 2.2 NE 4.5 0.0 0.1
23:10 1.3 -2.5 76 1037.2 3.1 NE 4.5 0.0 0.1
23:11 1.3 -2.5 76 1037.2 2.2 N 4.5 0.0 0.1
23:12 1.3 -2.5 76 1037.2 3.1 NE 4.5 0.0 0.1
23:13 1.3 -2.5 76 1037.1 3.8 N 4.5 0.0 0.1
23:14 1.3 -2.5 76 1037.0 3.8 NNE 4.5 0.0 0.1
23:15 1.3 -2.5 76 1037.1 3.8 N 4.5 0.0 0.1
23:16 1.3 -2.5 76 1037.1 3.1 N 4.5 0.0 0.1
23:17 1.3 -2.5 76 1037.1 3.1 NNE 4.5 0.0 0.1
23:18 1.3 -2.5 76 1037.0 4.5 N 4.5 0.0 0.1
23:19 1.3 -2.5 76 1037.1 3.1 NE 4.5 0.0 0.1
23:20 1.3 -2.3 77 1037.2 3.1 N 4.5 0.0 0.1
23:21 1.3 -2.5 76 1037.2 3.1 N 4.5 0.0 0.1
23:22 1.3 -2.3 77 1037.2 3.8 NE 4.5 0.0 0.1
23:23 1.3 -2.5 76 1037.3 3.8 N 4.5 0.0 0.1
23:25 1.4 -2.2 77 1037.2 4.5 NW 4.5 0.0 0.1
23:26 1.4 -2.2 77 1037.2 3.8 NE 4.5 0.0 0.1
23:27 1.4 -2.2 77 1037.2 3.1 N 4.5 0.0 0.1
23:28 1.4 -2.2 77 1037.2 3.1 N 4.5 0.0 0.1
23:29 1.4 -2.2 77 1037.3 5.4 N 5.4 0.0 0.1
23:30 1.4 -2.2 77 1037.2 3.1 N 5.4 0.0 0.1
23:31 1.5 -2.1 77 1037.3 3.1 N 5.4 0.0 0.1
23:32 1.5 -2.1 77 1037.2 3.1 N 5.4 0.0 0.1
23:33 1.5 -2.1 77 1037.1 2.2 N 5.4 0.0 0.1
23:35 1.5 -2.1 77 1037.4 4.5 N 5.4 0.0 0.1
23:36 1.5 -2.1 77 1037.4 4.5 N 5.4 0.0 0.1
23:37 1.5 -2.1 77 1037.2 3.8 N 5.4 0.0 0.1
23:38 1.5 -2.1 77 1037.3 3.1 N 5.4 0.0 0.1
23:40 1.5 -2.1 77 1037.4 3.1 N 4.5 0.0 0.1
23:41 1.5 -2.1 77 1037.4 3.1 N 4.5 0.0 0.1
23:42 1.5 -2.1 77 1037.3 3.8 N 4.5 0.0 0.1
23:43 1.5 -2.1 77 1037.2 4.5 NW 4.5 0.0 0.1
23:44 1.5 -2.1 77 1037.3 5.4 NW 5.4 0.0 0.1
23:45 1.5 -2.1 77 1037.4 4.5 NW 5.4 0.0 0.1
23:46 1.5 -2.1 77 1037.4 3.8 N 5.4 0.0 0.1
23:47 1.5 -2.1 77 1037.4 3.8 N 5.4 0.0 0.1
23:48 1.5 -2.1 77 1037.4 3.1 NE 5.4 0.0 0.1
23:49 1.5 -2.1 77 1037.5 3.1 N 5.4 0.0 0.1
23:50 1.5 -2.1 77 1037.6 3.8 N 5.4 0.0 0.1
23:51 1.5 -2.1 77 1037.5 4.5 NE 5.4 0.0 0.1
23:52 1.5 -2.1 77 1037.7 3.8 N 5.4 0.0 0.1
23:54 1.4 -2.2 77 1037.5 3.8 NW 4.5 0.0 0.1
23:55 1.4 -2.2 77 1037.6 3.8 N 4.5 0.0 0.1
23:56 1.4 -2.2 77 1037.7 3.1 N 4.5 0.0 0.1
23:57 1.4 -2.2 77 1037.7 4.5 N 4.5 0.0 0.1
23:58 1.4 -2.2 77 1037.7 2.2 N 4.5 0.0 0.1
23:59 1.4 -2.2 77 1037.6 3.8 N 4.5 0.0 0.1

 

 

UK - WEATHER STATION TOPSITES - UK World Weather Websites

Copyright © Carnkie Weather 2009 - 2020.